<?xml version="1.0" encoding="UTF-8" standalone="no" ?>
<gpx xmlns="http://www.topografix.com/GPX/1/1" xmlns:xsi="http://www.w3.org/2001/XMLSchema-instance" xsi:schemaLocation="http://www.topografix.com/GPX/1/1 http://www.topografix.com/GPX/1/1/gpx.xsd" version="1.1" creator="VisuGPX - https://www.visugpx.com">
  <metadata>
    <name>La Gare (Perigneux)  21km</name>
    <desc><![CDATA[tracé fait le 22-11-2022]]></desc>
  </metadata>
  <trk>
    <name><![CDATA[Piste_2022-11-20 180010]]></name>
    <trkseg>
      <trkpt lat="45.46016" lon="4.15225">
        <ele>593</ele>
      </trkpt>
      <trkpt lat="45.46052" lon="4.1523">
        <ele>592.1</ele>
      </trkpt>
      <trkpt lat="45.46108" lon="4.15236">
        <ele>590.1</ele>
      </trkpt>
      <trkpt lat="45.46179" lon="4.15242">
        <ele>587.3</ele>
      </trkpt>
      <trkpt lat="45.46267" lon="4.15227">
        <ele>583.9</ele>
      </trkpt>
      <trkpt lat="45.4635" lon="4.15219">
        <ele>581.1</ele>
      </trkpt>
      <trkpt lat="45.4648" lon="4.15247">
        <ele>576.5</ele>
      </trkpt>
      <trkpt lat="45.46552" lon="4.15255">
        <ele>574.2</ele>
      </trkpt>
      <trkpt lat="45.46641" lon="4.15221">
        <ele>569.7</ele>
      </trkpt>
      <trkpt lat="45.46732" lon="4.15135">
        <ele>562.6</ele>
      </trkpt>
      <trkpt lat="45.46829" lon="4.15036">
        <ele>569.2</ele>
      </trkpt>
      <trkpt lat="45.46887" lon="4.14997">
        <ele>560.59</ele>
        <time>2022-11-20T09:26:57Z</time>
      </trkpt>
      <trkpt lat="45.46893" lon="4.15013">
        <ele>566.35</ele>
        <time>2022-11-20T09:27:15Z</time>
      </trkpt>
      <trkpt lat="45.46891" lon="4.15011">
        <ele>577.41</ele>
        <time>2022-11-20T09:27:43Z</time>
      </trkpt>
      <trkpt lat="45.46899" lon="4.15009">
        <ele>573.08</ele>
        <time>2022-11-20T09:28:08Z</time>
      </trkpt>
      <trkpt lat="45.46901" lon="4.15009">
        <ele>572.6</ele>
        <time>2022-11-20T09:28:09Z</time>
      </trkpt>
      <trkpt lat="45.46903" lon="4.15009">
        <ele>571.64</ele>
        <time>2022-11-20T09:28:11Z</time>
      </trkpt>
      <trkpt lat="45.46935" lon="4.14996">
        <ele>568.76</ele>
        <time>2022-11-20T09:28:35Z</time>
      </trkpt>
      <trkpt lat="45.46966" lon="4.1498">
        <ele>568.76</ele>
        <time>2022-11-20T09:28:58Z</time>
      </trkpt>
      <trkpt lat="45.46998" lon="4.14958">
        <ele>566.83</ele>
        <time>2022-11-20T09:29:20Z</time>
      </trkpt>
      <trkpt lat="45.47027" lon="4.14941">
        <ele>564.91</ele>
        <time>2022-11-20T09:29:44Z</time>
      </trkpt>
      <trkpt lat="45.47059" lon="4.14919">
        <ele>563.95</ele>
        <time>2022-11-20T09:30:09Z</time>
      </trkpt>
      <trkpt lat="45.47082" lon="4.14893">
        <ele>562.03</ele>
        <time>2022-11-20T09:30:30Z</time>
      </trkpt>
      <trkpt lat="45.47111" lon="4.14871">
        <ele>559.62</ele>
        <time>2022-11-20T09:30:53Z</time>
      </trkpt>
      <trkpt lat="45.47139" lon="4.14862">
        <ele>559.14</ele>
        <time>2022-11-20T09:31:12Z</time>
      </trkpt>
      <trkpt lat="45.47169" lon="4.14851">
        <ele>559.62</ele>
        <time>2022-11-20T09:31:34Z</time>
      </trkpt>
      <trkpt lat="45.47197" lon="4.14843">
        <ele>560.11</ele>
        <time>2022-11-20T09:31:53Z</time>
      </trkpt>
      <trkpt lat="45.47225" lon="4.14833">
        <ele>560.59</ele>
        <time>2022-11-20T09:32:13Z</time>
      </trkpt>
      <trkpt lat="45.47253" lon="4.14816">
        <ele>562.99</ele>
        <time>2022-11-20T09:32:34Z</time>
      </trkpt>
      <trkpt lat="45.4728" lon="4.14792">
        <ele>561.55</ele>
        <time>2022-11-20T09:32:57Z</time>
      </trkpt>
      <trkpt lat="45.47295" lon="4.14762">
        <ele>561.07</ele>
        <time>2022-11-20T09:33:15Z</time>
      </trkpt>
      <trkpt lat="45.4731" lon="4.14731">
        <ele>559.14</ele>
        <time>2022-11-20T09:33:33Z</time>
      </trkpt>
      <trkpt lat="45.4733" lon="4.147">
        <ele>558.18</ele>
        <time>2022-11-20T09:33:53Z</time>
      </trkpt>
      <trkpt lat="45.47358" lon="4.14692">
        <ele>557.22</ele>
        <time>2022-11-20T09:34:13Z</time>
      </trkpt>
      <trkpt lat="45.47383" lon="4.14681">
        <ele>557.22</ele>
        <time>2022-11-20T09:34:30Z</time>
      </trkpt>
      <trkpt lat="45.47413" lon="4.14674">
        <ele>556.26</ele>
        <time>2022-11-20T09:34:51Z</time>
      </trkpt>
      <trkpt lat="45.47443" lon="4.14668">
        <ele>557.22</ele>
        <time>2022-11-20T09:35:10Z</time>
      </trkpt>
      <trkpt lat="45.47472" lon="4.14658">
        <ele>559.62</ele>
        <time>2022-11-20T09:35:31Z</time>
      </trkpt>
      <trkpt lat="45.47496" lon="4.14644">
        <ele>561.07</ele>
        <time>2022-11-20T09:35:51Z</time>
      </trkpt>
      <trkpt lat="45.47506" lon="4.14637">
        <ele>562.51</ele>
        <time>2022-11-20T09:36:06Z</time>
      </trkpt>
      <trkpt lat="45.47516" lon="4.14618">
        <ele>566.83</ele>
        <time>2022-11-20T09:36:21Z</time>
      </trkpt>
      <trkpt lat="45.47493" lon="4.14602">
        <ele>567.32</ele>
        <time>2022-11-20T09:36:42Z</time>
      </trkpt>
      <trkpt lat="45.47494" lon="4.14588">
        <ele>568.28</ele>
        <time>2022-11-20T09:36:48Z</time>
      </trkpt>
      <trkpt lat="45.47523" lon="4.14571">
        <ele>566.35</ele>
        <time>2022-11-20T09:37:08Z</time>
      </trkpt>
      <trkpt lat="45.47546" lon="4.14554">
        <ele>566.83</ele>
        <time>2022-11-20T09:37:27Z</time>
      </trkpt>
      <trkpt lat="45.4757" lon="4.14537">
        <ele>568.28</ele>
        <time>2022-11-20T09:37:49Z</time>
      </trkpt>
      <trkpt lat="45.47599" lon="4.14516">
        <ele>569.72</ele>
        <time>2022-11-20T09:38:11Z</time>
      </trkpt>
      <trkpt lat="45.47627" lon="4.14497">
        <ele>569.72</ele>
        <time>2022-11-20T09:38:32Z</time>
      </trkpt>
      <trkpt lat="45.4765" lon="4.14473">
        <ele>569.72</ele>
        <time>2022-11-20T09:38:52Z</time>
      </trkpt>
      <trkpt lat="45.4767" lon="4.14456">
        <ele>570.2</ele>
        <time>2022-11-20T09:39:11Z</time>
      </trkpt>
      <trkpt lat="45.47689" lon="4.14431">
        <ele>569.24</ele>
        <time>2022-11-20T09:39:30Z</time>
      </trkpt>
      <trkpt lat="45.47709" lon="4.14409">
        <ele>567.8</ele>
        <time>2022-11-20T09:39:48Z</time>
      </trkpt>
      <trkpt lat="45.47736" lon="4.14385">
        <ele>565.39</ele>
        <time>2022-11-20T09:40:09Z</time>
      </trkpt>
      <trkpt lat="45.47761" lon="4.14365">
        <ele>563.95</ele>
        <time>2022-11-20T09:40:27Z</time>
      </trkpt>
      <trkpt lat="45.47783" lon="4.14346">
        <ele>564.43</ele>
        <time>2022-11-20T09:40:46Z</time>
      </trkpt>
      <trkpt lat="45.47808" lon="4.14324">
        <ele>563.95</ele>
        <time>2022-11-20T09:41:08Z</time>
      </trkpt>
      <trkpt lat="45.47828" lon="4.14293">
        <ele>562.03</ele>
        <time>2022-11-20T09:41:31Z</time>
      </trkpt>
      <trkpt lat="45.47823" lon="4.14287">
        <ele>562.99</ele>
        <time>2022-11-20T09:41:36Z</time>
      </trkpt>
      <trkpt lat="45.478" lon="4.14285">
        <ele>563.47</ele>
        <time>2022-11-20T09:41:51Z</time>
      </trkpt>
      <trkpt lat="45.47774" lon="4.14274">
        <ele>563.95</ele>
        <time>2022-11-20T09:42:13Z</time>
      </trkpt>
      <trkpt lat="45.4775" lon="4.14261">
        <ele>564.43</ele>
        <time>2022-11-20T09:42:33Z</time>
      </trkpt>
      <trkpt lat="45.47728" lon="4.14249">
        <ele>566.83</ele>
        <time>2022-11-20T09:42:53Z</time>
      </trkpt>
      <trkpt lat="45.47718" lon="4.14238">
        <ele>566.83</ele>
        <time>2022-11-20T09:43:03Z</time>
      </trkpt>
      <trkpt lat="45.47717" lon="4.14235">
        <ele>566.83</ele>
        <time>2022-11-20T09:43:04Z</time>
      </trkpt>
      <trkpt lat="45.47716" lon="4.14233">
        <ele>567.32</ele>
        <time>2022-11-20T09:43:05Z</time>
      </trkpt>
      <trkpt lat="45.47697" lon="4.14202">
        <ele>569.72</ele>
        <time>2022-11-20T09:43:26Z</time>
      </trkpt>
      <trkpt lat="45.47674" lon="4.1417">
        <ele>573.08</ele>
        <time>2022-11-20T09:43:50Z</time>
      </trkpt>
      <trkpt lat="45.47649" lon="4.14143">
        <ele>576.93</ele>
        <time>2022-11-20T09:44:09Z</time>
      </trkpt>
      <trkpt lat="45.4763" lon="4.14126">
        <ele>579.33</ele>
        <time>2022-11-20T09:44:28Z</time>
      </trkpt>
      <trkpt lat="45.47626" lon="4.14125">
        <ele>579.33</ele>
        <time>2022-11-20T09:44:31Z</time>
      </trkpt>
      <trkpt lat="45.47625" lon="4.14124">
        <ele>579.33</ele>
        <time>2022-11-20T09:44:32Z</time>
      </trkpt>
      <trkpt lat="45.47597" lon="4.14115">
        <ele>581.25</ele>
        <time>2022-11-20T09:44:46Z</time>
      </trkpt>
      <trkpt lat="45.4757" lon="4.14105">
        <ele>582.22</ele>
        <time>2022-11-20T09:45:07Z</time>
      </trkpt>
      <trkpt lat="45.47548" lon="4.141">
        <ele>582.7</ele>
        <time>2022-11-20T09:45:21Z</time>
      </trkpt>
      <trkpt lat="45.47522" lon="4.14096">
        <ele>582.22</ele>
        <time>2022-11-20T09:45:40Z</time>
      </trkpt>
      <trkpt lat="45.47493" lon="4.14101">
        <ele>581.25</ele>
        <time>2022-11-20T09:46:02Z</time>
      </trkpt>
      <trkpt lat="45.47467" lon="4.141">
        <ele>581.73</ele>
        <time>2022-11-20T09:46:20Z</time>
      </trkpt>
      <trkpt lat="45.47435" lon="4.14096">
        <ele>581.73</ele>
        <time>2022-11-20T09:46:36Z</time>
      </trkpt>
      <trkpt lat="45.47428" lon="4.14081">
        <ele>581.73</ele>
        <time>2022-11-20T09:46:53Z</time>
      </trkpt>
      <trkpt lat="45.47422" lon="4.14057">
        <ele>579.81</ele>
        <time>2022-11-20T09:47:12Z</time>
      </trkpt>
      <trkpt lat="45.47419" lon="4.1405">
        <ele>578.85</ele>
        <time>2022-11-20T09:47:16Z</time>
      </trkpt>
      <trkpt lat="45.47407" lon="4.14007">
        <ele>578.85</ele>
        <time>2022-11-20T09:47:33Z</time>
      </trkpt>
      <trkpt lat="45.47403" lon="4.13965">
        <ele>580.29</ele>
        <time>2022-11-20T09:47:50Z</time>
      </trkpt>
      <trkpt lat="45.47408" lon="4.13939">
        <ele>581.73</ele>
        <time>2022-11-20T09:48:08Z</time>
      </trkpt>
      <trkpt lat="45.47417" lon="4.13909">
        <ele>583.18</ele>
        <time>2022-11-20T09:48:26Z</time>
      </trkpt>
      <trkpt lat="45.47418" lon="4.13898">
        <ele>584.14</ele>
        <time>2022-11-20T09:48:42Z</time>
      </trkpt>
      <trkpt lat="45.47423" lon="4.13856">
        <ele>584.62</ele>
        <time>2022-11-20T09:49:02Z</time>
      </trkpt>
      <trkpt lat="45.47424" lon="4.13823">
        <ele>586.54</ele>
        <time>2022-11-20T09:49:19Z</time>
      </trkpt>
      <trkpt lat="45.47423" lon="4.13787">
        <ele>587.5</ele>
        <time>2022-11-20T09:49:34Z</time>
      </trkpt>
      <trkpt lat="45.47421" lon="4.13752">
        <ele>590.87</ele>
        <time>2022-11-20T09:49:53Z</time>
      </trkpt>
      <trkpt lat="45.4741" lon="4.1372">
        <ele>589.43</ele>
        <time>2022-11-20T09:50:10Z</time>
      </trkpt>
      <trkpt lat="45.47387" lon="4.13707">
        <ele>587.5</ele>
        <time>2022-11-20T09:50:25Z</time>
      </trkpt>
      <trkpt lat="45.47381" lon="4.13699">
        <ele>586.54</ele>
        <time>2022-11-20T09:50:32Z</time>
      </trkpt>
      <trkpt lat="45.4738" lon="4.13697">
        <ele>586.54</ele>
        <time>2022-11-20T09:50:33Z</time>
      </trkpt>
      <trkpt lat="45.4738" lon="4.13696">
        <ele>586.54</ele>
        <time>2022-11-20T09:50:34Z</time>
      </trkpt>
      <trkpt lat="45.47379" lon="4.13694">
        <ele>586.06</ele>
        <time>2022-11-20T09:50:35Z</time>
      </trkpt>
      <trkpt lat="45.47378" lon="4.13692">
        <ele>586.06</ele>
        <time>2022-11-20T09:50:36Z</time>
      </trkpt>
      <trkpt lat="45.47378" lon="4.13656">
        <ele>585.1</ele>
        <time>2022-11-20T09:50:50Z</time>
      </trkpt>
      <trkpt lat="45.47381" lon="4.13621">
        <ele>586.06</ele>
        <time>2022-11-20T09:51:06Z</time>
      </trkpt>
      <trkpt lat="45.47381" lon="4.13591">
        <ele>585.1</ele>
        <time>2022-11-20T09:51:23Z</time>
      </trkpt>
      <trkpt lat="45.47377" lon="4.13557">
        <ele>585.58</ele>
        <time>2022-11-20T09:51:41Z</time>
      </trkpt>
      <trkpt lat="45.47372" lon="4.13525">
        <ele>585.58</ele>
        <time>2022-11-20T09:51:58Z</time>
      </trkpt>
      <trkpt lat="45.47365" lon="4.13483">
        <ele>587.5</ele>
        <time>2022-11-20T09:52:17Z</time>
      </trkpt>
      <trkpt lat="45.4736" lon="4.13458">
        <ele>589.91</ele>
        <time>2022-11-20T09:52:31Z</time>
      </trkpt>
      <trkpt lat="45.47354" lon="4.13423">
        <ele>593.75</ele>
        <time>2022-11-20T09:52:52Z</time>
      </trkpt>
      <trkpt lat="45.47338" lon="4.13391">
        <ele>595.67</ele>
        <time>2022-11-20T09:53:06Z</time>
      </trkpt>
      <trkpt lat="45.47324" lon="4.13368">
        <ele>598.08</ele>
        <time>2022-11-20T09:53:23Z</time>
      </trkpt>
      <trkpt lat="45.47306" lon="4.13339">
        <ele>598.56</ele>
        <time>2022-11-20T09:53:41Z</time>
      </trkpt>
      <trkpt lat="45.47293" lon="4.13314">
        <ele>599.52</ele>
        <time>2022-11-20T09:53:56Z</time>
      </trkpt>
      <trkpt lat="45.47277" lon="4.13288">
        <ele>599.52</ele>
        <time>2022-11-20T09:54:12Z</time>
      </trkpt>
      <trkpt lat="45.47261" lon="4.13264">
        <ele>598.56</ele>
        <time>2022-11-20T09:54:29Z</time>
      </trkpt>
      <trkpt lat="45.47245" lon="4.13239">
        <ele>599.04</ele>
        <time>2022-11-20T09:54:46Z</time>
      </trkpt>
      <trkpt lat="45.47223" lon="4.1323">
        <ele>597.12</ele>
        <time>2022-11-20T09:55:00Z</time>
      </trkpt>
      <trkpt lat="45.47199" lon="4.13241">
        <ele>598.56</ele>
        <time>2022-11-20T09:55:15Z</time>
      </trkpt>
      <trkpt lat="45.47167" lon="4.13257">
        <ele>598.08</ele>
        <time>2022-11-20T09:55:36Z</time>
      </trkpt>
      <trkpt lat="45.47142" lon="4.13269">
        <ele>599.52</ele>
        <time>2022-11-20T09:55:54Z</time>
      </trkpt>
      <trkpt lat="45.47114" lon="4.13283">
        <ele>600</ele>
        <time>2022-11-20T09:56:13Z</time>
      </trkpt>
      <trkpt lat="45.47091" lon="4.13288">
        <ele>601.44</ele>
        <time>2022-11-20T09:56:29Z</time>
      </trkpt>
      <trkpt lat="45.47066" lon="4.13288">
        <ele>604.81</ele>
        <time>2022-11-20T09:56:48Z</time>
      </trkpt>
      <trkpt lat="45.47033" lon="4.13278">
        <ele>604.33</ele>
        <time>2022-11-20T09:57:07Z</time>
      </trkpt>
      <trkpt lat="45.47007" lon="4.13262">
        <ele>603.85</ele>
        <time>2022-11-20T09:57:27Z</time>
      </trkpt>
      <trkpt lat="45.46985" lon="4.13247">
        <ele>603.85</ele>
        <time>2022-11-20T09:57:45Z</time>
      </trkpt>
      <trkpt lat="45.46967" lon="4.13222">
        <ele>604.81</ele>
        <time>2022-11-20T09:58:01Z</time>
      </trkpt>
      <trkpt lat="45.46948" lon="4.1321">
        <ele>606.25</ele>
        <time>2022-11-20T09:58:19Z</time>
      </trkpt>
      <trkpt lat="45.46945" lon="4.13189">
        <ele>606.73</ele>
        <time>2022-11-20T09:58:35Z</time>
      </trkpt>
      <trkpt lat="45.46955" lon="4.13153">
        <ele>607.21</ele>
        <time>2022-11-20T09:58:58Z</time>
      </trkpt>
      <trkpt lat="45.46956" lon="4.13151">
        <ele>607.21</ele>
        <time>2022-11-20T09:58:59Z</time>
      </trkpt>
      <trkpt lat="45.46962" lon="4.13113">
        <ele>608.17</ele>
        <time>2022-11-20T09:59:18Z</time>
      </trkpt>
      <trkpt lat="45.46966" lon="4.1308">
        <ele>607.69</ele>
        <time>2022-11-20T09:59:35Z</time>
      </trkpt>
      <trkpt lat="45.46966" lon="4.13045">
        <ele>606.73</ele>
        <time>2022-11-20T09:59:53Z</time>
      </trkpt>
      <trkpt lat="45.46965" lon="4.13003">
        <ele>605.77</ele>
        <time>2022-11-20T10:00:15Z</time>
      </trkpt>
      <trkpt lat="45.46962" lon="4.12961">
        <ele>604.33</ele>
        <time>2022-11-20T10:00:38Z</time>
      </trkpt>
      <trkpt lat="45.46961" lon="4.12937">
        <ele>604.33</ele>
        <time>2022-11-20T10:00:56Z</time>
      </trkpt>
      <trkpt lat="45.46954" lon="4.12912">
        <ele>601.92</ele>
        <time>2022-11-20T10:01:16Z</time>
      </trkpt>
      <trkpt lat="45.46956" lon="4.12876">
        <ele>598.56</ele>
        <time>2022-11-20T10:01:36Z</time>
      </trkpt>
      <trkpt lat="45.46958" lon="4.12838">
        <ele>597.6</ele>
        <time>2022-11-20T10:01:58Z</time>
      </trkpt>
      <trkpt lat="45.46957" lon="4.12801">
        <ele>592.79</ele>
        <time>2022-11-20T10:02:17Z</time>
      </trkpt>
      <trkpt lat="45.46961" lon="4.12774">
        <ele>589.91</ele>
        <time>2022-11-20T10:02:35Z</time>
      </trkpt>
      <trkpt lat="45.46971" lon="4.12741">
        <ele>588.46</ele>
        <time>2022-11-20T10:02:54Z</time>
      </trkpt>
      <trkpt lat="45.46978" lon="4.12714">
        <ele>586.54</ele>
        <time>2022-11-20T10:03:06Z</time>
      </trkpt>
      <trkpt lat="45.46976" lon="4.1271">
        <ele>586.06</ele>
        <time>2022-11-20T10:03:07Z</time>
      </trkpt>
      <trkpt lat="45.46966" lon="4.12694">
        <ele>584.62</ele>
        <time>2022-11-20T10:03:11Z</time>
      </trkpt>
      <trkpt lat="45.46962" lon="4.1269">
        <ele>584.62</ele>
        <time>2022-11-20T10:03:12Z</time>
      </trkpt>
      <trkpt lat="45.46946" lon="4.12658">
        <ele>583.18</ele>
        <time>2022-11-20T10:03:22Z</time>
      </trkpt>
      <trkpt lat="45.4695" lon="4.12645">
        <ele>584.14</ele>
        <time>2022-11-20T10:03:24Z</time>
      </trkpt>
      <trkpt lat="45.46953" lon="4.1264">
        <ele>584.62</ele>
        <time>2022-11-20T10:03:25Z</time>
      </trkpt>
      <trkpt lat="45.46973" lon="4.1263">
        <ele>586.54</ele>
        <time>2022-11-20T10:03:39Z</time>
      </trkpt>
      <trkpt lat="45.46998" lon="4.12627">
        <ele>593.27</ele>
        <time>2022-11-20T10:04:00Z</time>
      </trkpt>
      <trkpt lat="45.47" lon="4.12625">
        <ele>594.23</ele>
        <time>2022-11-20T10:04:02Z</time>
      </trkpt>
      <trkpt lat="45.47001" lon="4.12624">
        <ele>595.19</ele>
        <time>2022-11-20T10:04:03Z</time>
      </trkpt>
      <trkpt lat="45.47021" lon="4.12609">
        <ele>603.36</ele>
        <time>2022-11-20T10:04:21Z</time>
      </trkpt>
      <trkpt lat="45.47047" lon="4.12597">
        <ele>611.06</ele>
        <time>2022-11-20T10:04:43Z</time>
      </trkpt>
      <trkpt lat="45.4707" lon="4.12587">
        <ele>615.38</ele>
        <time>2022-11-20T10:04:59Z</time>
      </trkpt>
      <trkpt lat="45.47096" lon="4.1258">
        <ele>620.19</ele>
        <time>2022-11-20T10:05:18Z</time>
      </trkpt>
      <trkpt lat="45.47122" lon="4.12561">
        <ele>616.34</ele>
        <time>2022-11-20T10:05:38Z</time>
      </trkpt>
      <trkpt lat="45.47143" lon="4.12541">
        <ele>611.54</ele>
        <time>2022-11-20T10:05:53Z</time>
      </trkpt>
      <trkpt lat="45.47157" lon="4.12523">
        <ele>610.57</ele>
        <time>2022-11-20T10:06:10Z</time>
      </trkpt>
      <trkpt lat="45.47169" lon="4.12493">
        <ele>609.13</ele>
        <time>2022-11-20T10:06:29Z</time>
      </trkpt>
      <trkpt lat="45.47178" lon="4.12467">
        <ele>608.17</ele>
        <time>2022-11-20T10:06:45Z</time>
      </trkpt>
      <trkpt lat="45.47186" lon="4.1244">
        <ele>608.65</ele>
        <time>2022-11-20T10:07:02Z</time>
      </trkpt>
      <trkpt lat="45.47192" lon="4.12408">
        <ele>607.21</ele>
        <time>2022-11-20T10:07:21Z</time>
      </trkpt>
      <trkpt lat="45.47196" lon="4.12369">
        <ele>603.85</ele>
        <time>2022-11-20T10:07:39Z</time>
      </trkpt>
      <trkpt lat="45.47194" lon="4.12332">
        <ele>599.52</ele>
        <time>2022-11-20T10:07:59Z</time>
      </trkpt>
      <trkpt lat="45.47193" lon="4.12298">
        <ele>595.19</ele>
        <time>2022-11-20T10:08:20Z</time>
      </trkpt>
      <trkpt lat="45.47188" lon="4.12271">
        <ele>590.39</ele>
        <time>2022-11-20T10:08:38Z</time>
      </trkpt>
      <trkpt lat="45.47176" lon="4.12246">
        <ele>586.06</ele>
        <time>2022-11-20T10:08:55Z</time>
      </trkpt>
      <trkpt lat="45.47156" lon="4.12217">
        <ele>582.22</ele>
        <time>2022-11-20T10:09:11Z</time>
      </trkpt>
      <trkpt lat="45.47144" lon="4.12193">
        <ele>577.41</ele>
        <time>2022-11-20T10:09:25Z</time>
      </trkpt>
      <trkpt lat="45.4713" lon="4.12167">
        <ele>576.45</ele>
        <time>2022-11-20T10:09:39Z</time>
      </trkpt>
      <trkpt lat="45.47116" lon="4.12146">
        <ele>577.41</ele>
        <time>2022-11-20T10:09:55Z</time>
      </trkpt>
      <trkpt lat="45.471" lon="4.12117">
        <ele>576.93</ele>
        <time>2022-11-20T10:10:10Z</time>
      </trkpt>
      <trkpt lat="45.47109" lon="4.12073">
        <ele>576.93</ele>
        <time>2022-11-20T10:10:24Z</time>
      </trkpt>
      <trkpt lat="45.47133" lon="4.12037">
        <ele>580.29</ele>
        <time>2022-11-20T10:10:39Z</time>
      </trkpt>
      <trkpt lat="45.47153" lon="4.12013">
        <ele>583.18</ele>
        <time>2022-11-20T10:10:55Z</time>
      </trkpt>
      <trkpt lat="45.47165" lon="4.11985">
        <ele>586.06</ele>
        <time>2022-11-20T10:11:09Z</time>
      </trkpt>
      <trkpt lat="45.47172" lon="4.11956">
        <ele>590.39</ele>
        <time>2022-11-20T10:11:24Z</time>
      </trkpt>
      <trkpt lat="45.47189" lon="4.11924">
        <ele>596.15</ele>
        <time>2022-11-20T10:11:45Z</time>
      </trkpt>
      <trkpt lat="45.47206" lon="4.11893">
        <ele>601.44</ele>
        <time>2022-11-20T10:12:06Z</time>
      </trkpt>
      <trkpt lat="45.47218" lon="4.1186">
        <ele>605.77</ele>
        <time>2022-11-20T10:12:24Z</time>
      </trkpt>
      <trkpt lat="45.47232" lon="4.11825">
        <ele>610.09</ele>
        <time>2022-11-20T10:12:46Z</time>
      </trkpt>
      <trkpt lat="45.47242" lon="4.1179">
        <ele>608.65</ele>
        <time>2022-11-20T10:13:05Z</time>
      </trkpt>
      <trkpt lat="45.47249" lon="4.11755">
        <ele>611.06</ele>
        <time>2022-11-20T10:13:24Z</time>
      </trkpt>
      <trkpt lat="45.47257" lon="4.11722">
        <ele>610.57</ele>
        <time>2022-11-20T10:13:43Z</time>
      </trkpt>
      <trkpt lat="45.47262" lon="4.11696">
        <ele>609.61</ele>
        <time>2022-11-20T10:14:04Z</time>
      </trkpt>
      <trkpt lat="45.47263" lon="4.11694">
        <ele>609.61</ele>
        <time>2022-11-20T10:14:06Z</time>
      </trkpt>
      <trkpt lat="45.47282" lon="4.11669">
        <ele>607.69</ele>
        <time>2022-11-20T10:14:23Z</time>
      </trkpt>
      <trkpt lat="45.47297" lon="4.11635">
        <ele>609.61</ele>
        <time>2022-11-20T10:14:44Z</time>
      </trkpt>
      <trkpt lat="45.47309" lon="4.11598">
        <ele>608.65</ele>
        <time>2022-11-20T10:15:05Z</time>
      </trkpt>
      <trkpt lat="45.4732" lon="4.11562">
        <ele>606.73</ele>
        <time>2022-11-20T10:15:24Z</time>
      </trkpt>
      <trkpt lat="45.47341" lon="4.11546">
        <ele>608.17</ele>
        <time>2022-11-20T10:15:41Z</time>
      </trkpt>
      <trkpt lat="45.47356" lon="4.11546">
        <ele>611.06</ele>
        <time>2022-11-20T10:15:59Z</time>
      </trkpt>
      <trkpt lat="45.4738" lon="4.11528">
        <ele>609.61</ele>
        <time>2022-11-20T10:16:18Z</time>
      </trkpt>
      <trkpt lat="45.47406" lon="4.11518">
        <ele>611.54</ele>
        <time>2022-11-20T10:16:36Z</time>
      </trkpt>
      <trkpt lat="45.47429" lon="4.11516">
        <ele>608.65</ele>
        <time>2022-11-20T10:16:52Z</time>
      </trkpt>
      <trkpt lat="45.47452" lon="4.11507">
        <ele>609.61</ele>
        <time>2022-11-20T10:17:10Z</time>
      </trkpt>
      <trkpt lat="45.47473" lon="4.11501">
        <ele>609.13</ele>
        <time>2022-11-20T10:17:26Z</time>
      </trkpt>
      <trkpt lat="45.47505" lon="4.11502">
        <ele>606.73</ele>
        <time>2022-11-20T10:17:48Z</time>
      </trkpt>
      <trkpt lat="45.47525" lon="4.1149">
        <ele>606.25</ele>
        <time>2022-11-20T10:18:04Z</time>
      </trkpt>
      <trkpt lat="45.47547" lon="4.11475">
        <ele>605.29</ele>
        <time>2022-11-20T10:18:25Z</time>
      </trkpt>
      <trkpt lat="45.47564" lon="4.11454">
        <ele>603.85</ele>
        <time>2022-11-20T10:18:42Z</time>
      </trkpt>
      <trkpt lat="45.47582" lon="4.11429">
        <ele>602.4</ele>
        <time>2022-11-20T10:19:03Z</time>
      </trkpt>
      <trkpt lat="45.47596" lon="4.11403">
        <ele>600.48</ele>
        <time>2022-11-20T10:19:24Z</time>
      </trkpt>
      <trkpt lat="45.47608" lon="4.11375">
        <ele>599.52</ele>
        <time>2022-11-20T10:19:41Z</time>
      </trkpt>
      <trkpt lat="45.47611" lon="4.11349">
        <ele>598.56</ele>
        <time>2022-11-20T10:19:58Z</time>
      </trkpt>
      <trkpt lat="45.4763" lon="4.11318">
        <ele>596.15</ele>
        <time>2022-11-20T10:20:18Z</time>
      </trkpt>
      <trkpt lat="45.47647" lon="4.11302">
        <ele>593.27</ele>
        <time>2022-11-20T10:20:34Z</time>
      </trkpt>
      <trkpt lat="45.4766" lon="4.11281">
        <ele>590.87</ele>
        <time>2022-11-20T10:20:50Z</time>
      </trkpt>
      <trkpt lat="45.4768" lon="4.11261">
        <ele>586.06</ele>
        <time>2022-11-20T10:21:09Z</time>
      </trkpt>
      <trkpt lat="45.47698" lon="4.11252">
        <ele>582.22</ele>
        <time>2022-11-20T10:21:27Z</time>
      </trkpt>
      <trkpt lat="45.47699" lon="4.11251">
        <ele>581.73</ele>
        <time>2022-11-20T10:21:28Z</time>
      </trkpt>
      <trkpt lat="45.47715" lon="4.11246">
        <ele>578.37</ele>
        <time>2022-11-20T10:21:43Z</time>
      </trkpt>
      <trkpt lat="45.47731" lon="4.11266">
        <ele>573.56</ele>
        <time>2022-11-20T10:21:59Z</time>
      </trkpt>
      <trkpt lat="45.4775" lon="4.1129">
        <ele>570.68</ele>
        <time>2022-11-20T10:22:16Z</time>
      </trkpt>
      <trkpt lat="45.47774" lon="4.11308">
        <ele>568.28</ele>
        <time>2022-11-20T10:22:33Z</time>
      </trkpt>
      <trkpt lat="45.47802" lon="4.1133">
        <ele>568.76</ele>
        <time>2022-11-20T10:22:52Z</time>
      </trkpt>
      <trkpt lat="45.47828" lon="4.1135">
        <ele>568.76</ele>
        <time>2022-11-20T10:23:12Z</time>
      </trkpt>
      <trkpt lat="45.47848" lon="4.11366">
        <ele>568.76</ele>
        <time>2022-11-20T10:23:30Z</time>
      </trkpt>
      <trkpt lat="45.47871" lon="4.11387">
        <ele>567.32</ele>
        <time>2022-11-20T10:23:48Z</time>
      </trkpt>
      <trkpt lat="45.47893" lon="4.11408">
        <ele>565.39</ele>
        <time>2022-11-20T10:24:06Z</time>
      </trkpt>
      <trkpt lat="45.47913" lon="4.11422">
        <ele>562.51</ele>
        <time>2022-11-20T10:24:23Z</time>
      </trkpt>
      <trkpt lat="45.47927" lon="4.1143">
        <ele>561.07</ele>
        <time>2022-11-20T10:24:36Z</time>
      </trkpt>
      <trkpt lat="45.4795" lon="4.11438">
        <ele>560.11</ele>
        <time>2022-11-20T10:24:54Z</time>
      </trkpt>
      <trkpt lat="45.47969" lon="4.11442">
        <ele>558.18</ele>
        <time>2022-11-20T10:25:09Z</time>
      </trkpt>
      <trkpt lat="45.47997" lon="4.11445">
        <ele>553.86</ele>
        <time>2022-11-20T10:25:30Z</time>
      </trkpt>
      <trkpt lat="45.48025" lon="4.1145">
        <ele>551.45</ele>
        <time>2022-11-20T10:25:50Z</time>
      </trkpt>
      <trkpt lat="45.48049" lon="4.11464">
        <ele>548.09</ele>
        <time>2022-11-20T10:26:08Z</time>
      </trkpt>
      <trkpt lat="45.48068" lon="4.11476">
        <ele>546.17</ele>
        <time>2022-11-20T10:26:23Z</time>
      </trkpt>
      <trkpt lat="45.48087" lon="4.11495">
        <ele>544.24</ele>
        <time>2022-11-20T10:26:40Z</time>
      </trkpt>
      <trkpt lat="45.48109" lon="4.1152">
        <ele>540.88</ele>
        <time>2022-11-20T10:27:00Z</time>
      </trkpt>
      <trkpt lat="45.48128" lon="4.1155">
        <ele>537.99</ele>
        <time>2022-11-20T10:27:20Z</time>
      </trkpt>
      <trkpt lat="45.48147" lon="4.11585">
        <ele>534.63</ele>
        <time>2022-11-20T10:27:40Z</time>
      </trkpt>
      <trkpt lat="45.48162" lon="4.11616">
        <ele>531.27</ele>
        <time>2022-11-20T10:27:59Z</time>
      </trkpt>
      <trkpt lat="45.48176" lon="4.11637">
        <ele>531.75</ele>
        <time>2022-11-20T10:28:16Z</time>
      </trkpt>
      <trkpt lat="45.48177" lon="4.11639">
        <ele>530.79</ele>
        <time>2022-11-20T10:28:41Z</time>
      </trkpt>
      <trkpt lat="45.48182" lon="4.11644">
        <ele>531.75</ele>
        <time>2022-11-20T10:28:59Z</time>
      </trkpt>
      <trkpt lat="45.48197" lon="4.11664">
        <ele>530.79</ele>
        <time>2022-11-20T10:29:16Z</time>
      </trkpt>
      <trkpt lat="45.48211" lon="4.11684">
        <ele>529.34</ele>
        <time>2022-11-20T10:29:32Z</time>
      </trkpt>
      <trkpt lat="45.48228" lon="4.11704">
        <ele>525.02</ele>
        <time>2022-11-20T10:29:50Z</time>
      </trkpt>
      <trkpt lat="45.48243" lon="4.11727">
        <ele>521.65</ele>
        <time>2022-11-20T10:30:04Z</time>
      </trkpt>
      <trkpt lat="45.48256" lon="4.1175">
        <ele>518.29</ele>
        <time>2022-11-20T10:30:20Z</time>
      </trkpt>
      <trkpt lat="45.4827" lon="4.11772">
        <ele>513.48</ele>
        <time>2022-11-20T10:30:38Z</time>
      </trkpt>
      <trkpt lat="45.48292" lon="4.11795">
        <ele>508.19</ele>
        <time>2022-11-20T10:30:57Z</time>
      </trkpt>
      <trkpt lat="45.48303" lon="4.11811">
        <ele>504.83</ele>
        <time>2022-11-20T10:31:13Z</time>
      </trkpt>
      <trkpt lat="45.4833" lon="4.11814">
        <ele>503.39</ele>
        <time>2022-11-20T10:31:34Z</time>
      </trkpt>
      <trkpt lat="45.48346" lon="4.11812">
        <ele>503.87</ele>
        <time>2022-11-20T10:31:46Z</time>
      </trkpt>
      <trkpt lat="45.48362" lon="4.11805">
        <ele>504.35</ele>
        <time>2022-11-20T10:32:03Z</time>
      </trkpt>
      <trkpt lat="45.48362" lon="4.11797">
        <ele>502.43</ele>
        <time>2022-11-20T10:32:08Z</time>
      </trkpt>
      <trkpt lat="45.48358" lon="4.11788">
        <ele>499.54</ele>
        <time>2022-11-20T10:32:16Z</time>
      </trkpt>
      <trkpt lat="45.48346" lon="4.11758">
        <ele>493.29</ele>
        <time>2022-11-20T10:32:36Z</time>
      </trkpt>
      <trkpt lat="45.48341" lon="4.11725">
        <ele>488.49</ele>
        <time>2022-11-20T10:32:54Z</time>
      </trkpt>
      <trkpt lat="45.48333" lon="4.11694">
        <ele>482.24</ele>
        <time>2022-11-20T10:33:13Z</time>
      </trkpt>
      <trkpt lat="45.48337" lon="4.11659">
        <ele>481.76</ele>
        <time>2022-11-20T10:33:32Z</time>
      </trkpt>
      <trkpt lat="45.48338" lon="4.11631">
        <ele>478.87</ele>
        <time>2022-11-20T10:33:50Z</time>
      </trkpt>
      <trkpt lat="45.48338" lon="4.11599">
        <ele>478.87</ele>
        <time>2022-11-20T10:34:07Z</time>
      </trkpt>
      <trkpt lat="45.48334" lon="4.1157">
        <ele>472.63</ele>
        <time>2022-11-20T10:34:23Z</time>
      </trkpt>
      <trkpt lat="45.48329" lon="4.11539">
        <ele>464.93</ele>
        <time>2022-11-20T10:34:40Z</time>
      </trkpt>
      <trkpt lat="45.48324" lon="4.11503">
        <ele>458.69</ele>
        <time>2022-11-20T10:35:02Z</time>
      </trkpt>
      <trkpt lat="45.48323" lon="4.11477">
        <ele>452.92</ele>
        <time>2022-11-20T10:35:21Z</time>
      </trkpt>
      <trkpt lat="45.48325" lon="4.1144">
        <ele>448.59</ele>
        <time>2022-11-20T10:35:41Z</time>
      </trkpt>
      <trkpt lat="45.4833" lon="4.11434">
        <ele>449.07</ele>
        <time>2022-11-20T10:35:42Z</time>
      </trkpt>
      <trkpt lat="45.48335" lon="4.11426">
        <ele>450.03</ele>
        <time>2022-11-20T10:35:44Z</time>
      </trkpt>
      <trkpt lat="45.4836" lon="4.11408">
        <ele>451</ele>
        <time>2022-11-20T10:36:01Z</time>
      </trkpt>
      <trkpt lat="45.48382" lon="4.11393">
        <ele>450.03</ele>
        <time>2022-11-20T10:36:19Z</time>
      </trkpt>
      <trkpt lat="45.48386" lon="4.11384">
        <ele>450.03</ele>
        <time>2022-11-20T10:36:40Z</time>
      </trkpt>
      <trkpt lat="45.48394" lon="4.11375">
        <ele>453.88</ele>
        <time>2022-11-20T10:36:58Z</time>
      </trkpt>
      <trkpt lat="45.48398" lon="4.11375">
        <ele>455.32</ele>
        <time>2022-11-20T10:37:02Z</time>
      </trkpt>
      <trkpt lat="45.484" lon="4.11376">
        <ele>455.8</ele>
        <time>2022-11-20T10:37:03Z</time>
      </trkpt>
      <trkpt lat="45.48402" lon="4.11378">
        <ele>456.76</ele>
        <time>2022-11-20T10:37:04Z</time>
      </trkpt>
      <trkpt lat="45.48404" lon="4.1138">
        <ele>457.24</ele>
        <time>2022-11-20T10:37:05Z</time>
      </trkpt>
      <trkpt lat="45.48406" lon="4.11383">
        <ele>458.21</ele>
        <time>2022-11-20T10:37:06Z</time>
      </trkpt>
      <trkpt lat="45.48409" lon="4.11386">
        <ele>459.17</ele>
        <time>2022-11-20T10:37:07Z</time>
      </trkpt>
      <trkpt lat="45.48411" lon="4.11389">
        <ele>459.65</ele>
        <time>2022-11-20T10:37:08Z</time>
      </trkpt>
      <trkpt lat="45.48426" lon="4.1143">
        <ele>462.53</ele>
        <time>2022-11-20T10:37:24Z</time>
      </trkpt>
      <trkpt lat="45.48428" lon="4.11437">
        <ele>462.53</ele>
        <time>2022-11-20T10:37:27Z</time>
      </trkpt>
      <trkpt lat="45.48437" lon="4.11476">
        <ele>463.49</ele>
        <time>2022-11-20T10:37:48Z</time>
      </trkpt>
      <trkpt lat="45.48451" lon="4.11504">
        <ele>468.78</ele>
        <time>2022-11-20T10:38:11Z</time>
      </trkpt>
      <trkpt lat="45.48454" lon="4.1151">
        <ele>469.26</ele>
        <time>2022-11-20T10:38:14Z</time>
      </trkpt>
      <trkpt lat="45.48468" lon="4.11542">
        <ele>468.78</ele>
        <time>2022-11-20T10:38:28Z</time>
      </trkpt>
      <trkpt lat="45.48477" lon="4.11579">
        <ele>466.86</ele>
        <time>2022-11-20T10:38:47Z</time>
      </trkpt>
      <trkpt lat="45.48484" lon="4.11607">
        <ele>467.34</ele>
        <time>2022-11-20T10:39:04Z</time>
      </trkpt>
      <trkpt lat="45.48495" lon="4.11637">
        <ele>467.82</ele>
        <time>2022-11-20T10:39:23Z</time>
      </trkpt>
      <trkpt lat="45.48509" lon="4.11665">
        <ele>467.34</ele>
        <time>2022-11-20T10:39:38Z</time>
      </trkpt>
      <trkpt lat="45.48521" lon="4.11691">
        <ele>466.86</ele>
        <time>2022-11-20T10:39:54Z</time>
      </trkpt>
      <trkpt lat="45.48523" lon="4.11696">
        <ele>467.82</ele>
        <time>2022-11-20T10:39:58Z</time>
      </trkpt>
      <trkpt lat="45.48541" lon="4.11715">
        <ele>469.74</ele>
        <time>2022-11-20T10:40:15Z</time>
      </trkpt>
      <trkpt lat="45.4856" lon="4.11742">
        <ele>472.14</ele>
        <time>2022-11-20T10:40:31Z</time>
      </trkpt>
      <trkpt lat="45.48571" lon="4.1175">
        <ele>473.59</ele>
        <time>2022-11-20T10:40:41Z</time>
      </trkpt>
      <trkpt lat="45.48573" lon="4.11751">
        <ele>473.59</ele>
        <time>2022-11-20T10:40:42Z</time>
      </trkpt>
      <trkpt lat="45.48589" lon="4.11761">
        <ele>479.35</ele>
        <time>2022-11-20T10:40:54Z</time>
      </trkpt>
      <trkpt lat="45.48604" lon="4.11785">
        <ele>483.68</ele>
        <time>2022-11-20T10:41:08Z</time>
      </trkpt>
      <trkpt lat="45.48605" lon="4.11788">
        <ele>483.2</ele>
        <time>2022-11-20T10:41:09Z</time>
      </trkpt>
      <trkpt lat="45.48613" lon="4.11815">
        <ele>485.6</ele>
        <time>2022-11-20T10:41:25Z</time>
      </trkpt>
      <trkpt lat="45.48621" lon="4.11821">
        <ele>487.05</ele>
        <time>2022-11-20T10:41:40Z</time>
      </trkpt>
      <trkpt lat="45.48625" lon="4.11825">
        <ele>486.56</ele>
        <time>2022-11-20T10:41:58Z</time>
      </trkpt>
      <trkpt lat="45.48627" lon="4.11827">
        <ele>486.56</ele>
        <time>2022-11-20T10:42:04Z</time>
      </trkpt>
      <trkpt lat="45.48628" lon="4.11829">
        <ele>486.56</ele>
        <time>2022-11-20T10:42:06Z</time>
      </trkpt>
      <trkpt lat="45.48629" lon="4.11831">
        <ele>486.08</ele>
        <time>2022-11-20T10:42:07Z</time>
      </trkpt>
      <trkpt lat="45.48644" lon="4.11844">
        <ele>487.05</ele>
        <time>2022-11-20T10:42:20Z</time>
      </trkpt>
      <trkpt lat="45.48649" lon="4.11844">
        <ele>488.01</ele>
        <time>2022-11-20T10:42:24Z</time>
      </trkpt>
      <trkpt lat="45.48665" lon="4.1184">
        <ele>492.33</ele>
        <time>2022-11-20T10:42:40Z</time>
      </trkpt>
      <trkpt lat="45.48676" lon="4.1184">
        <ele>495.7</ele>
        <time>2022-11-20T10:42:52Z</time>
      </trkpt>
      <trkpt lat="45.48679" lon="4.11839">
        <ele>496.66</ele>
        <time>2022-11-20T10:42:55Z</time>
      </trkpt>
      <trkpt lat="45.4869" lon="4.1183">
        <ele>500.02</ele>
        <time>2022-11-20T10:43:10Z</time>
      </trkpt>
      <trkpt lat="45.48706" lon="4.11821">
        <ele>503.87</ele>
        <time>2022-11-20T10:43:28Z</time>
      </trkpt>
      <trkpt lat="45.48708" lon="4.11813">
        <ele>505.31</ele>
        <time>2022-11-20T10:43:34Z</time>
      </trkpt>
      <trkpt lat="45.48715" lon="4.11785">
        <ele>507.23</ele>
        <time>2022-11-20T10:43:48Z</time>
      </trkpt>
      <trkpt lat="45.48728" lon="4.11758">
        <ele>510.12</ele>
        <time>2022-11-20T10:44:07Z</time>
      </trkpt>
      <trkpt lat="45.48732" lon="4.11736">
        <ele>512.52</ele>
        <time>2022-11-20T10:44:23Z</time>
      </trkpt>
      <trkpt lat="45.48733" lon="4.11733">
        <ele>512.52</ele>
        <time>2022-11-20T10:44:25Z</time>
      </trkpt>
      <trkpt lat="45.4874" lon="4.11709">
        <ele>515.4</ele>
        <time>2022-11-20T10:44:40Z</time>
      </trkpt>
      <trkpt lat="45.48743" lon="4.11688">
        <ele>518.29</ele>
        <time>2022-11-20T10:44:52Z</time>
      </trkpt>
      <trkpt lat="45.48745" lon="4.11669">
        <ele>521.17</ele>
        <time>2022-11-20T10:45:07Z</time>
      </trkpt>
      <trkpt lat="45.48747" lon="4.11637">
        <ele>524.54</ele>
        <time>2022-11-20T10:45:25Z</time>
      </trkpt>
      <trkpt lat="45.48751" lon="4.11597">
        <ele>527.9</ele>
        <time>2022-11-20T10:45:38Z</time>
      </trkpt>
      <trkpt lat="45.48752" lon="4.11564">
        <ele>529.34</ele>
        <time>2022-11-20T10:45:51Z</time>
      </trkpt>
      <trkpt lat="45.48754" lon="4.11532">
        <ele>531.27</ele>
        <time>2022-11-20T10:46:05Z</time>
      </trkpt>
      <trkpt lat="45.48759" lon="4.115">
        <ele>533.19</ele>
        <time>2022-11-20T10:46:24Z</time>
      </trkpt>
      <trkpt lat="45.48763" lon="4.1147">
        <ele>535.11</ele>
        <time>2022-11-20T10:46:41Z</time>
      </trkpt>
      <trkpt lat="45.48773" lon="4.11436">
        <ele>535.59</ele>
        <time>2022-11-20T10:47:00Z</time>
      </trkpt>
      <trkpt lat="45.4878" lon="4.11403">
        <ele>535.59</ele>
        <time>2022-11-20T10:47:14Z</time>
      </trkpt>
      <trkpt lat="45.48774" lon="4.11372">
        <ele>536.07</ele>
        <time>2022-11-20T10:47:28Z</time>
      </trkpt>
      <trkpt lat="45.48769" lon="4.11338">
        <ele>536.55</ele>
        <time>2022-11-20T10:47:46Z</time>
      </trkpt>
      <trkpt lat="45.48759" lon="4.11302">
        <ele>537.51</ele>
        <time>2022-11-20T10:48:05Z</time>
      </trkpt>
      <trkpt lat="45.48749" lon="4.11271">
        <ele>539.44</ele>
        <time>2022-11-20T10:48:22Z</time>
      </trkpt>
      <trkpt lat="45.48736" lon="4.11242">
        <ele>540.88</ele>
        <time>2022-11-20T10:48:37Z</time>
      </trkpt>
      <trkpt lat="45.48724" lon="4.11212">
        <ele>542.8</ele>
        <time>2022-11-20T10:48:56Z</time>
      </trkpt>
      <trkpt lat="45.48712" lon="4.1119">
        <ele>540.88</ele>
        <time>2022-11-20T10:49:12Z</time>
      </trkpt>
      <trkpt lat="45.487" lon="4.11164">
        <ele>539.92</ele>
        <time>2022-11-20T10:49:28Z</time>
      </trkpt>
      <trkpt lat="45.48678" lon="4.11136">
        <ele>541.36</ele>
        <time>2022-11-20T10:49:42Z</time>
      </trkpt>
      <trkpt lat="45.48653" lon="4.11127">
        <ele>543.28</ele>
        <time>2022-11-20T10:50:00Z</time>
      </trkpt>
      <trkpt lat="45.48651" lon="4.11127">
        <ele>543.76</ele>
        <time>2022-11-20T10:50:01Z</time>
      </trkpt>
      <trkpt lat="45.48637" lon="4.11108">
        <ele>549.53</ele>
        <time>2022-11-20T10:50:14Z</time>
      </trkpt>
      <trkpt lat="45.48641" lon="4.11069">
        <ele>550.97</ele>
        <time>2022-11-20T10:50:31Z</time>
      </trkpt>
      <trkpt lat="45.48635" lon="4.11033">
        <ele>550.01</ele>
        <time>2022-11-20T10:50:49Z</time>
      </trkpt>
      <trkpt lat="45.4863" lon="4.11015">
        <ele>549.53</ele>
        <time>2022-11-20T10:51:00Z</time>
      </trkpt>
      <trkpt lat="45.4863" lon="4.11013">
        <ele>549.05</ele>
        <time>2022-11-20T10:51:01Z</time>
      </trkpt>
      <trkpt lat="45.48629" lon="4.11011">
        <ele>549.05</ele>
        <time>2022-11-20T10:51:02Z</time>
      </trkpt>
      <trkpt lat="45.48621" lon="4.10973">
        <ele>549.05</ele>
        <time>2022-11-20T10:51:20Z</time>
      </trkpt>
      <trkpt lat="45.48617" lon="4.10941">
        <ele>550.97</ele>
        <time>2022-11-20T10:51:37Z</time>
      </trkpt>
      <trkpt lat="45.48613" lon="4.10903">
        <ele>550.97</ele>
        <time>2022-11-20T10:51:56Z</time>
      </trkpt>
      <trkpt lat="45.48609" lon="4.10869">
        <ele>551.45</ele>
        <time>2022-11-20T10:52:14Z</time>
      </trkpt>
      <trkpt lat="45.48604" lon="4.10837">
        <ele>552.41</ele>
        <time>2022-11-20T10:52:32Z</time>
      </trkpt>
      <trkpt lat="45.48604" lon="4.10804">
        <ele>553.38</ele>
        <time>2022-11-20T10:52:49Z</time>
      </trkpt>
      <trkpt lat="45.48606" lon="4.10769">
        <ele>553.38</ele>
        <time>2022-11-20T10:53:09Z</time>
      </trkpt>
      <trkpt lat="45.486" lon="4.10734">
        <ele>553.38</ele>
        <time>2022-11-20T10:53:29Z</time>
      </trkpt>
      <trkpt lat="45.48599" lon="4.107">
        <ele>550.97</ele>
        <time>2022-11-20T10:53:49Z</time>
      </trkpt>
      <trkpt lat="45.48592" lon="4.1067">
        <ele>547.61</ele>
        <time>2022-11-20T10:54:06Z</time>
      </trkpt>
      <trkpt lat="45.4858" lon="4.10637">
        <ele>545.69</ele>
        <time>2022-11-20T10:54:23Z</time>
      </trkpt>
      <trkpt lat="45.48566" lon="4.10602">
        <ele>544.72</ele>
        <time>2022-11-20T10:54:44Z</time>
      </trkpt>
      <trkpt lat="45.48552" lon="4.10577">
        <ele>542.32</ele>
        <time>2022-11-20T10:55:03Z</time>
      </trkpt>
      <trkpt lat="45.48533" lon="4.10554">
        <ele>543.76</ele>
        <time>2022-11-20T10:55:21Z</time>
      </trkpt>
      <trkpt lat="45.48523" lon="4.10537">
        <ele>543.28</ele>
        <time>2022-11-20T10:55:31Z</time>
      </trkpt>
      <trkpt lat="45.4851" lon="4.10504">
        <ele>543.76</ele>
        <time>2022-11-20T10:55:47Z</time>
      </trkpt>
      <trkpt lat="45.48496" lon="4.10476">
        <ele>548.57</ele>
        <time>2022-11-20T10:56:05Z</time>
      </trkpt>
      <trkpt lat="45.48473" lon="4.10452">
        <ele>551.45</ele>
        <time>2022-11-20T10:56:27Z</time>
      </trkpt>
      <trkpt lat="45.48453" lon="4.10434">
        <ele>554.82</ele>
        <time>2022-11-20T10:56:46Z</time>
      </trkpt>
      <trkpt lat="45.48433" lon="4.10414">
        <ele>559.14</ele>
        <time>2022-11-20T10:57:05Z</time>
      </trkpt>
      <trkpt lat="45.48417" lon="4.10398">
        <ele>562.51</ele>
        <time>2022-11-20T10:57:21Z</time>
      </trkpt>
      <trkpt lat="45.48416" lon="4.10398">
        <ele>562.51</ele>
        <time>2022-11-20T10:57:22Z</time>
      </trkpt>
      <trkpt lat="45.48415" lon="4.10397">
        <ele>562.51</ele>
        <time>2022-11-20T10:57:23Z</time>
      </trkpt>
      <trkpt lat="45.48397" lon="4.10376">
        <ele>563.47</ele>
        <time>2022-11-20T10:57:44Z</time>
      </trkpt>
      <trkpt lat="45.48381" lon="4.10353">
        <ele>560.59</ele>
        <time>2022-11-20T10:58:02Z</time>
      </trkpt>
      <trkpt lat="45.48366" lon="4.10332">
        <ele>559.62</ele>
        <time>2022-11-20T10:58:21Z</time>
      </trkpt>
      <trkpt lat="45.48353" lon="4.10307">
        <ele>555.78</ele>
        <time>2022-11-20T10:58:40Z</time>
      </trkpt>
      <trkpt lat="45.48347" lon="4.10294">
        <ele>552.9</ele>
        <time>2022-11-20T10:58:55Z</time>
      </trkpt>
      <trkpt lat="45.48334" lon="4.10272">
        <ele>549.05</ele>
        <time>2022-11-20T10:59:14Z</time>
      </trkpt>
      <trkpt lat="45.48318" lon="4.10238">
        <ele>545.2</ele>
        <time>2022-11-20T10:59:27Z</time>
      </trkpt>
      <trkpt lat="45.48304" lon="4.10222">
        <ele>543.76</ele>
        <time>2022-11-20T10:59:38Z</time>
      </trkpt>
      <trkpt lat="45.48292" lon="4.10203">
        <ele>544.72</ele>
        <time>2022-11-20T10:59:54Z</time>
      </trkpt>
      <trkpt lat="45.48278" lon="4.10176">
        <ele>545.2</ele>
        <time>2022-11-20T11:00:13Z</time>
      </trkpt>
      <trkpt lat="45.48272" lon="4.1016">
        <ele>545.69</ele>
        <time>2022-11-20T11:00:32Z</time>
      </trkpt>
      <trkpt lat="45.48271" lon="4.10155">
        <ele>546.17</ele>
        <time>2022-11-20T11:00:36Z</time>
      </trkpt>
      <trkpt lat="45.48272" lon="4.10153">
        <ele>546.17</ele>
        <time>2022-11-20T11:00:37Z</time>
      </trkpt>
      <trkpt lat="45.48273" lon="4.10152">
        <ele>546.17</ele>
        <time>2022-11-20T11:00:38Z</time>
      </trkpt>
      <trkpt lat="45.48274" lon="4.10151">
        <ele>546.65</ele>
        <time>2022-11-20T11:00:39Z</time>
      </trkpt>
      <trkpt lat="45.48275" lon="4.1015">
        <ele>546.65</ele>
        <time>2022-11-20T11:00:40Z</time>
      </trkpt>
      <trkpt lat="45.48276" lon="4.10149">
        <ele>547.13</ele>
        <time>2022-11-20T11:00:41Z</time>
      </trkpt>
      <trkpt lat="45.48278" lon="4.10148">
        <ele>547.61</ele>
        <time>2022-11-20T11:00:42Z</time>
      </trkpt>
      <trkpt lat="45.48279" lon="4.10148">
        <ele>548.09</ele>
        <time>2022-11-20T11:00:43Z</time>
      </trkpt>
      <trkpt lat="45.48301" lon="4.10136">
        <ele>553.86</ele>
        <time>2022-11-20T11:00:55Z</time>
      </trkpt>
      <trkpt lat="45.48325" lon="4.10122">
        <ele>557.7</ele>
        <time>2022-11-20T11:01:16Z</time>
      </trkpt>
      <trkpt lat="45.48349" lon="4.10107">
        <ele>562.03</ele>
        <time>2022-11-20T11:01:36Z</time>
      </trkpt>
      <trkpt lat="45.48367" lon="4.10094">
        <ele>563.95</ele>
        <time>2022-11-20T11:01:53Z</time>
      </trkpt>
      <trkpt lat="45.48385" lon="4.10079">
        <ele>565.39</ele>
        <time>2022-11-20T11:02:10Z</time>
      </trkpt>
      <trkpt lat="45.48404" lon="4.10064">
        <ele>568.28</ele>
        <time>2022-11-20T11:02:28Z</time>
      </trkpt>
      <trkpt lat="45.48425" lon="4.10048">
        <ele>571.64</ele>
        <time>2022-11-20T11:02:43Z</time>
      </trkpt>
      <trkpt lat="45.48442" lon="4.10031">
        <ele>575.49</ele>
        <time>2022-11-20T11:03:00Z</time>
      </trkpt>
      <trkpt lat="45.48464" lon="4.10017">
        <ele>578.37</ele>
        <time>2022-11-20T11:03:16Z</time>
      </trkpt>
      <trkpt lat="45.48481" lon="4.09996">
        <ele>581.25</ele>
        <time>2022-11-20T11:03:35Z</time>
      </trkpt>
      <trkpt lat="45.48496" lon="4.09977">
        <ele>582.22</ele>
        <time>2022-11-20T11:03:51Z</time>
      </trkpt>
      <trkpt lat="45.48517" lon="4.09955">
        <ele>582.7</ele>
        <time>2022-11-20T11:04:11Z</time>
      </trkpt>
      <trkpt lat="45.48535" lon="4.09935">
        <ele>582.7</ele>
        <time>2022-11-20T11:04:29Z</time>
      </trkpt>
      <trkpt lat="45.48555" lon="4.09917">
        <ele>581.73</ele>
        <time>2022-11-20T11:04:44Z</time>
      </trkpt>
      <trkpt lat="45.48574" lon="4.09897">
        <ele>582.7</ele>
        <time>2022-11-20T11:05:02Z</time>
      </trkpt>
      <trkpt lat="45.48587" lon="4.09871">
        <ele>584.14</ele>
        <time>2022-11-20T11:05:20Z</time>
      </trkpt>
      <trkpt lat="45.48603" lon="4.09845">
        <ele>583.66</ele>
        <time>2022-11-20T11:05:40Z</time>
      </trkpt>
      <trkpt lat="45.48621" lon="4.09827">
        <ele>586.06</ele>
        <time>2022-11-20T11:05:58Z</time>
      </trkpt>
      <trkpt lat="45.4864" lon="4.09818">
        <ele>586.06</ele>
        <time>2022-11-20T11:06:15Z</time>
      </trkpt>
      <trkpt lat="45.48655" lon="4.09798">
        <ele>587.5</ele>
        <time>2022-11-20T11:06:31Z</time>
      </trkpt>
      <trkpt lat="45.48658" lon="4.09767">
        <ele>587.02</ele>
        <time>2022-11-20T11:06:47Z</time>
      </trkpt>
      <trkpt lat="45.48653" lon="4.0974">
        <ele>586.54</ele>
        <time>2022-11-20T11:07:02Z</time>
      </trkpt>
      <trkpt lat="45.48641" lon="4.09709">
        <ele>588.95</ele>
        <time>2022-11-20T11:07:16Z</time>
      </trkpt>
      <trkpt lat="45.48626" lon="4.09661">
        <ele>588.95</ele>
        <time>2022-11-20T11:07:32Z</time>
      </trkpt>
      <trkpt lat="45.4863" lon="4.09604">
        <ele>591.35</ele>
        <time>2022-11-20T11:07:43Z</time>
      </trkpt>
      <trkpt lat="45.48632" lon="4.09577">
        <ele>592.79</ele>
        <time>2022-11-20T11:07:47Z</time>
      </trkpt>
      <trkpt lat="45.48632" lon="4.0957">
        <ele>592.79</ele>
        <time>2022-11-20T11:07:48Z</time>
      </trkpt>
      <trkpt lat="45.48632" lon="4.09557">
        <ele>593.75</ele>
        <time>2022-11-20T11:07:50Z</time>
      </trkpt>
      <trkpt lat="45.48625" lon="4.0952">
        <ele>597.12</ele>
        <time>2022-11-20T11:08:01Z</time>
      </trkpt>
      <trkpt lat="45.48616" lon="4.09493">
        <ele>600.48</ele>
        <time>2022-11-20T11:08:16Z</time>
      </trkpt>
      <trkpt lat="45.48604" lon="4.09464">
        <ele>602.4</ele>
        <time>2022-11-20T11:08:32Z</time>
      </trkpt>
      <trkpt lat="45.48597" lon="4.09429">
        <ele>604.33</ele>
        <time>2022-11-20T11:08:52Z</time>
      </trkpt>
      <trkpt lat="45.48619" lon="4.09414">
        <ele>600.96</ele>
        <time>2022-11-20T11:09:10Z</time>
      </trkpt>
      <trkpt lat="45.48643" lon="4.09394">
        <ele>597.6</ele>
        <time>2022-11-20T11:09:31Z</time>
      </trkpt>
      <trkpt lat="45.48663" lon="4.09374">
        <ele>596.64</ele>
        <time>2022-11-20T11:09:48Z</time>
      </trkpt>
      <trkpt lat="45.48685" lon="4.09359">
        <ele>595.19</ele>
        <time>2022-11-20T11:10:05Z</time>
      </trkpt>
      <trkpt lat="45.48708" lon="4.09342">
        <ele>594.71</ele>
        <time>2022-11-20T11:10:21Z</time>
      </trkpt>
      <trkpt lat="45.48731" lon="4.09312">
        <ele>593.75</ele>
        <time>2022-11-20T11:10:37Z</time>
      </trkpt>
      <trkpt lat="45.48746" lon="4.09279">
        <ele>593.75</ele>
        <time>2022-11-20T11:10:55Z</time>
      </trkpt>
      <trkpt lat="45.48756" lon="4.09247">
        <ele>594.71</ele>
        <time>2022-11-20T11:11:11Z</time>
      </trkpt>
      <trkpt lat="45.48747" lon="4.09225">
        <ele>594.71</ele>
        <time>2022-11-20T11:11:25Z</time>
      </trkpt>
      <trkpt lat="45.48726" lon="4.09212">
        <ele>593.75</ele>
        <time>2022-11-20T11:11:43Z</time>
      </trkpt>
      <trkpt lat="45.48705" lon="4.09205">
        <ele>593.27</ele>
        <time>2022-11-20T11:11:59Z</time>
      </trkpt>
      <trkpt lat="45.48682" lon="4.09192">
        <ele>590.87</ele>
        <time>2022-11-20T11:12:17Z</time>
      </trkpt>
      <trkpt lat="45.4866" lon="4.09181">
        <ele>590.39</ele>
        <time>2022-11-20T11:12:34Z</time>
      </trkpt>
      <trkpt lat="45.48629" lon="4.09165">
        <ele>589.91</ele>
        <time>2022-11-20T11:12:53Z</time>
      </trkpt>
      <trkpt lat="45.48599" lon="4.09165">
        <ele>588.95</ele>
        <time>2022-11-20T11:13:08Z</time>
      </trkpt>
      <trkpt lat="45.48571" lon="4.09164">
        <ele>588.46</ele>
        <time>2022-11-20T11:13:30Z</time>
      </trkpt>
      <trkpt lat="45.48545" lon="4.0916">
        <ele>587.5</ele>
        <time>2022-11-20T11:13:50Z</time>
      </trkpt>
      <trkpt lat="45.48526" lon="4.09161">
        <ele>586.54</ele>
        <time>2022-11-20T11:14:05Z</time>
      </trkpt>
      <trkpt lat="45.48509" lon="4.09155">
        <ele>585.58</ele>
        <time>2022-11-20T11:14:19Z</time>
      </trkpt>
      <trkpt lat="45.48495" lon="4.09139">
        <ele>586.06</ele>
        <time>2022-11-20T11:14:36Z</time>
      </trkpt>
      <trkpt lat="45.4848" lon="4.09105">
        <ele>587.5</ele>
        <time>2022-11-20T11:14:58Z</time>
      </trkpt>
      <trkpt lat="45.48474" lon="4.09076">
        <ele>587.5</ele>
        <time>2022-11-20T11:15:15Z</time>
      </trkpt>
      <trkpt lat="45.48469" lon="4.09045">
        <ele>585.1</ele>
        <time>2022-11-20T11:15:33Z</time>
      </trkpt>
      <trkpt lat="45.48468" lon="4.09017">
        <ele>585.1</ele>
        <time>2022-11-20T11:15:50Z</time>
      </trkpt>
      <trkpt lat="45.48465" lon="4.08985">
        <ele>585.58</ele>
        <time>2022-11-20T11:16:05Z</time>
      </trkpt>
      <trkpt lat="45.48464" lon="4.08982">
        <ele>585.58</ele>
        <time>2022-11-20T11:16:06Z</time>
      </trkpt>
      <trkpt lat="45.48462" lon="4.0898">
        <ele>585.58</ele>
        <time>2022-11-20T11:16:07Z</time>
      </trkpt>
      <trkpt lat="45.48451" lon="4.0897">
        <ele>588.95</ele>
        <time>2022-11-20T11:16:22Z</time>
      </trkpt>
      <trkpt lat="45.48439" lon="4.08969">
        <ele>588.46</ele>
        <time>2022-11-20T11:16:42Z</time>
      </trkpt>
      <trkpt lat="45.48438" lon="4.0897">
        <ele>588.46</ele>
        <time>2022-11-20T11:16:43Z</time>
      </trkpt>
      <trkpt lat="45.4843" lon="4.08996">
        <ele>586.06</ele>
        <time>2022-11-20T11:17:01Z</time>
      </trkpt>
      <trkpt lat="45.48417" lon="4.09002">
        <ele>585.1</ele>
        <time>2022-11-20T11:17:08Z</time>
      </trkpt>
      <trkpt lat="45.48398" lon="4.08997">
        <ele>587.98</ele>
        <time>2022-11-20T11:17:23Z</time>
      </trkpt>
      <trkpt lat="45.48391" lon="4.08992">
        <ele>591.35</ele>
        <time>2022-11-20T11:17:27Z</time>
      </trkpt>
      <trkpt lat="45.48376" lon="4.08975">
        <ele>600.48</ele>
        <time>2022-11-20T11:17:42Z</time>
      </trkpt>
      <trkpt lat="45.4836" lon="4.08971">
        <ele>606.73</ele>
        <time>2022-11-20T11:17:58Z</time>
      </trkpt>
      <trkpt lat="45.48337" lon="4.08963">
        <ele>611.06</ele>
        <time>2022-11-20T11:18:21Z</time>
      </trkpt>
      <trkpt lat="45.48331" lon="4.08962">
        <ele>612.5</ele>
        <time>2022-11-20T11:18:35Z</time>
      </trkpt>
      <trkpt lat="45.48327" lon="4.08958">
        <ele>612.98</ele>
        <time>2022-11-20T11:18:42Z</time>
      </trkpt>
      <trkpt lat="45.48311" lon="4.08941">
        <ele>616.34</ele>
        <time>2022-11-20T11:18:58Z</time>
      </trkpt>
      <trkpt lat="45.48304" lon="4.08935">
        <ele>618.26</ele>
        <time>2022-11-20T11:19:18Z</time>
      </trkpt>
      <trkpt lat="45.48282" lon="4.08924">
        <ele>618.75</ele>
        <time>2022-11-20T11:19:37Z</time>
      </trkpt>
      <trkpt lat="45.48257" lon="4.08915">
        <ele>617.3</ele>
        <time>2022-11-20T11:19:54Z</time>
      </trkpt>
      <trkpt lat="45.48254" lon="4.08913">
        <ele>617.3</ele>
        <time>2022-11-20T11:20:13Z</time>
      </trkpt>
      <trkpt lat="45.4824" lon="4.089">
        <ele>618.26</ele>
        <time>2022-11-20T11:20:34Z</time>
      </trkpt>
      <trkpt lat="45.48225" lon="4.08893">
        <ele>619.71</ele>
        <time>2022-11-20T11:20:48Z</time>
      </trkpt>
      <trkpt lat="45.48224" lon="4.08892">
        <ele>619.71</ele>
        <time>2022-11-20T11:20:49Z</time>
      </trkpt>
      <trkpt lat="45.48223" lon="4.08891">
        <ele>619.71</ele>
        <time>2022-11-20T11:20:50Z</time>
      </trkpt>
      <trkpt lat="45.48209" lon="4.08875">
        <ele>620.67</ele>
        <time>2022-11-20T11:21:04Z</time>
      </trkpt>
      <trkpt lat="45.48191" lon="4.08858">
        <ele>621.63</ele>
        <time>2022-11-20T11:21:25Z</time>
      </trkpt>
      <trkpt lat="45.48179" lon="4.08856">
        <ele>618.75</ele>
        <time>2022-11-20T11:21:42Z</time>
      </trkpt>
      <trkpt lat="45.48182" lon="4.08853">
        <ele>617.3</ele>
        <time>2022-11-20T11:22:17Z</time>
      </trkpt>
      <trkpt lat="45.48183" lon="4.08853">
        <ele>616.82</ele>
        <time>2022-11-20T11:22:50Z</time>
      </trkpt>
      <trkpt lat="45.48183" lon="4.08853">
        <ele>617.78</ele>
        <time>2022-11-20T11:23:11Z</time>
      </trkpt>
      <trkpt lat="45.48173" lon="4.08853">
        <ele>617.3</ele>
        <time>2022-11-20T11:23:37Z</time>
      </trkpt>
      <trkpt lat="45.4816" lon="4.08851">
        <ele>616.34</ele>
        <time>2022-11-20T11:23:55Z</time>
      </trkpt>
      <trkpt lat="45.48155" lon="4.08849">
        <ele>616.34</ele>
        <time>2022-11-20T11:24:01Z</time>
      </trkpt>
      <trkpt lat="45.4815" lon="4.0885">
        <ele>615.86</ele>
        <time>2022-11-20T11:24:06Z</time>
      </trkpt>
      <trkpt lat="45.48129" lon="4.08846">
        <ele>612.5</ele>
        <time>2022-11-20T11:24:25Z</time>
      </trkpt>
      <trkpt lat="45.48109" lon="4.08836">
        <ele>608.65</ele>
        <time>2022-11-20T11:24:43Z</time>
      </trkpt>
      <trkpt lat="45.48089" lon="4.08812">
        <ele>603.36</ele>
        <time>2022-11-20T11:25:03Z</time>
      </trkpt>
      <trkpt lat="45.48079" lon="4.08785">
        <ele>601.44</ele>
        <time>2022-11-20T11:25:20Z</time>
      </trkpt>
      <trkpt lat="45.48077" lon="4.0877">
        <ele>600.48</ele>
        <time>2022-11-20T11:25:31Z</time>
      </trkpt>
      <trkpt lat="45.48078" lon="4.08762">
        <ele>600</ele>
        <time>2022-11-20T11:25:36Z</time>
      </trkpt>
      <trkpt lat="45.4808" lon="4.08726">
        <ele>600</ele>
        <time>2022-11-20T11:25:57Z</time>
      </trkpt>
      <trkpt lat="45.4808" lon="4.08701">
        <ele>599.52</ele>
        <time>2022-11-20T11:26:10Z</time>
      </trkpt>
      <trkpt lat="45.48072" lon="4.08693">
        <ele>598.08</ele>
        <time>2022-11-20T11:26:18Z</time>
      </trkpt>
      <trkpt lat="45.48049" lon="4.08665">
        <ele>598.08</ele>
        <time>2022-11-20T11:26:37Z</time>
      </trkpt>
      <trkpt lat="45.48044" lon="4.0865">
        <ele>601.44</ele>
        <time>2022-11-20T11:26:48Z</time>
      </trkpt>
      <trkpt lat="45.48034" lon="4.08617">
        <ele>605.29</ele>
        <time>2022-11-20T11:27:05Z</time>
      </trkpt>
      <trkpt lat="45.4803" lon="4.08606">
        <ele>604.33</ele>
        <time>2022-11-20T11:27:10Z</time>
      </trkpt>
      <trkpt lat="45.48029" lon="4.08604">
        <ele>604.33</ele>
        <time>2022-11-20T11:27:11Z</time>
      </trkpt>
      <trkpt lat="45.48021" lon="4.08575">
        <ele>605.77</ele>
        <time>2022-11-20T11:27:28Z</time>
      </trkpt>
      <trkpt lat="45.48015" lon="4.08561">
        <ele>606.73</ele>
        <time>2022-11-20T11:27:37Z</time>
      </trkpt>
      <trkpt lat="45.48002" lon="4.08531">
        <ele>606.25</ele>
        <time>2022-11-20T11:27:52Z</time>
      </trkpt>
      <trkpt lat="45.47988" lon="4.08501">
        <ele>606.25</ele>
        <time>2022-11-20T11:28:06Z</time>
      </trkpt>
      <trkpt lat="45.47967" lon="4.08476">
        <ele>605.77</ele>
        <time>2022-11-20T11:28:24Z</time>
      </trkpt>
      <trkpt lat="45.47944" lon="4.08462">
        <ele>607.21</ele>
        <time>2022-11-20T11:28:40Z</time>
      </trkpt>
      <trkpt lat="45.47923" lon="4.08438">
        <ele>607.69</ele>
        <time>2022-11-20T11:28:59Z</time>
      </trkpt>
      <trkpt lat="45.47904" lon="4.08417">
        <ele>609.61</ele>
        <time>2022-11-20T11:29:14Z</time>
      </trkpt>
      <trkpt lat="45.47882" lon="4.08396">
        <ele>611.54</ele>
        <time>2022-11-20T11:29:34Z</time>
      </trkpt>
      <trkpt lat="45.4788" lon="4.08393">
        <ele>611.06</ele>
        <time>2022-11-20T11:29:50Z</time>
      </trkpt>
      <trkpt lat="45.47873" lon="4.08392">
        <ele>608.65</ele>
        <time>2022-11-20T11:30:00Z</time>
      </trkpt>
      <trkpt lat="45.47853" lon="4.08394">
        <ele>604.81</ele>
        <time>2022-11-20T11:30:19Z</time>
      </trkpt>
      <trkpt lat="45.47831" lon="4.08401">
        <ele>601.44</ele>
        <time>2022-11-20T11:30:38Z</time>
      </trkpt>
      <trkpt lat="45.4783" lon="4.08402">
        <ele>601.44</ele>
        <time>2022-11-20T11:30:39Z</time>
      </trkpt>
      <trkpt lat="45.47813" lon="4.08414">
        <ele>598.56</ele>
        <time>2022-11-20T11:30:56Z</time>
      </trkpt>
      <trkpt lat="45.478" lon="4.08429">
        <ele>596.15</ele>
        <time>2022-11-20T11:31:13Z</time>
      </trkpt>
      <trkpt lat="45.47777" lon="4.08432">
        <ele>595.19</ele>
        <time>2022-11-20T11:31:28Z</time>
      </trkpt>
      <trkpt lat="45.47761" lon="4.0843">
        <ele>595.19</ele>
        <time>2022-11-20T11:31:41Z</time>
      </trkpt>
      <trkpt lat="45.47753" lon="4.0843">
        <ele>595.67</ele>
        <time>2022-11-20T11:31:47Z</time>
      </trkpt>
      <trkpt lat="45.47751" lon="4.0843">
        <ele>596.15</ele>
        <time>2022-11-20T11:31:48Z</time>
      </trkpt>
      <trkpt lat="45.4775" lon="4.08431">
        <ele>596.64</ele>
        <time>2022-11-20T11:31:49Z</time>
      </trkpt>
      <trkpt lat="45.47748" lon="4.08433">
        <ele>596.64</ele>
        <time>2022-11-20T11:31:50Z</time>
      </trkpt>
      <trkpt lat="45.47747" lon="4.08434">
        <ele>597.12</ele>
        <time>2022-11-20T11:31:51Z</time>
      </trkpt>
      <trkpt lat="45.47725" lon="4.08444">
        <ele>605.29</ele>
        <time>2022-11-20T11:32:06Z</time>
      </trkpt>
      <trkpt lat="45.47704" lon="4.08459">
        <ele>607.21</ele>
        <time>2022-11-20T11:32:21Z</time>
      </trkpt>
      <trkpt lat="45.4768" lon="4.08468">
        <ele>607.21</ele>
        <time>2022-11-20T11:32:38Z</time>
      </trkpt>
      <trkpt lat="45.47658" lon="4.08479">
        <ele>609.13</ele>
        <time>2022-11-20T11:32:56Z</time>
      </trkpt>
      <trkpt lat="45.47649" lon="4.08487">
        <ele>609.61</ele>
        <time>2022-11-20T11:33:04Z</time>
      </trkpt>
      <trkpt lat="45.47647" lon="4.08488">
        <ele>609.61</ele>
        <time>2022-11-20T11:33:05Z</time>
      </trkpt>
      <trkpt lat="45.47646" lon="4.0849">
        <ele>609.61</ele>
        <time>2022-11-20T11:33:06Z</time>
      </trkpt>
      <trkpt lat="45.47644" lon="4.08492">
        <ele>610.09</ele>
        <time>2022-11-20T11:33:07Z</time>
      </trkpt>
      <trkpt lat="45.47642" lon="4.08493">
        <ele>610.09</ele>
        <time>2022-11-20T11:33:08Z</time>
      </trkpt>
      <trkpt lat="45.4764" lon="4.08494">
        <ele>610.57</ele>
        <time>2022-11-20T11:33:09Z</time>
      </trkpt>
      <trkpt lat="45.47639" lon="4.08495">
        <ele>611.06</ele>
        <time>2022-11-20T11:33:10Z</time>
      </trkpt>
      <trkpt lat="45.47618" lon="4.08516">
        <ele>617.78</ele>
        <time>2022-11-20T11:33:30Z</time>
      </trkpt>
      <trkpt lat="45.47616" lon="4.08519">
        <ele>618.26</ele>
        <time>2022-11-20T11:33:32Z</time>
      </trkpt>
      <trkpt lat="45.4761" lon="4.08528">
        <ele>621.15</ele>
        <time>2022-11-20T11:33:39Z</time>
      </trkpt>
      <trkpt lat="45.47598" lon="4.0855">
        <ele>628.36</ele>
        <time>2022-11-20T11:33:57Z</time>
      </trkpt>
      <trkpt lat="45.47584" lon="4.08569">
        <ele>632.2</ele>
        <time>2022-11-20T11:34:13Z</time>
      </trkpt>
      <trkpt lat="45.4757" lon="4.08588">
        <ele>633.17</ele>
        <time>2022-11-20T11:34:30Z</time>
      </trkpt>
      <trkpt lat="45.47545" lon="4.08613">
        <ele>634.13</ele>
        <time>2022-11-20T11:34:50Z</time>
      </trkpt>
      <trkpt lat="45.47524" lon="4.0863">
        <ele>637.49</ele>
        <time>2022-11-20T11:35:07Z</time>
      </trkpt>
      <trkpt lat="45.47505" lon="4.08645">
        <ele>639.89</ele>
        <time>2022-11-20T11:35:24Z</time>
      </trkpt>
      <trkpt lat="45.47492" lon="4.08648">
        <ele>642.3</ele>
        <time>2022-11-20T11:35:35Z</time>
      </trkpt>
      <trkpt lat="45.47491" lon="4.08648">
        <ele>642.78</ele>
        <time>2022-11-20T11:35:36Z</time>
      </trkpt>
      <trkpt lat="45.47467" lon="4.08655">
        <ele>646.62</ele>
        <time>2022-11-20T11:35:55Z</time>
      </trkpt>
      <trkpt lat="45.47444" lon="4.08658">
        <ele>649.51</ele>
        <time>2022-11-20T11:36:14Z</time>
      </trkpt>
      <trkpt lat="45.47421" lon="4.08656">
        <ele>651.43</ele>
        <time>2022-11-20T11:36:32Z</time>
      </trkpt>
      <trkpt lat="45.47417" lon="4.08659">
        <ele>651.91</ele>
        <time>2022-11-20T11:36:42Z</time>
      </trkpt>
      <trkpt lat="45.47415" lon="4.08661">
        <ele>651.91</ele>
        <time>2022-11-20T11:36:43Z</time>
      </trkpt>
      <trkpt lat="45.47396" lon="4.08678">
        <ele>650.95</ele>
        <time>2022-11-20T11:36:56Z</time>
      </trkpt>
      <trkpt lat="45.4738" lon="4.08685">
        <ele>653.83</ele>
        <time>2022-11-20T11:37:13Z</time>
      </trkpt>
      <trkpt lat="45.47356" lon="4.08702">
        <ele>653.35</ele>
        <time>2022-11-20T11:37:30Z</time>
      </trkpt>
      <trkpt lat="45.47335" lon="4.08725">
        <ele>651.91</ele>
        <time>2022-11-20T11:37:51Z</time>
      </trkpt>
      <trkpt lat="45.47312" lon="4.08742">
        <ele>651.43</ele>
        <time>2022-11-20T11:38:11Z</time>
      </trkpt>
      <trkpt lat="45.47309" lon="4.08742">
        <ele>651.43</ele>
        <time>2022-11-20T11:38:13Z</time>
      </trkpt>
      <trkpt lat="45.4727" lon="4.08743">
        <ele>648.07</ele>
        <time>2022-11-20T11:38:40Z</time>
      </trkpt>
      <trkpt lat="45.4724" lon="4.08737">
        <ele>645.66</ele>
        <time>2022-11-20T11:39:03Z</time>
      </trkpt>
      <trkpt lat="45.47211" lon="4.08725">
        <ele>641.34</ele>
        <time>2022-11-20T11:39:26Z</time>
      </trkpt>
      <trkpt lat="45.47188" lon="4.08718">
        <ele>637.97</ele>
        <time>2022-11-20T11:39:46Z</time>
      </trkpt>
      <trkpt lat="45.47186" lon="4.08718">
        <ele>637.49</ele>
        <time>2022-11-20T11:39:48Z</time>
      </trkpt>
      <trkpt lat="45.47167" lon="4.08733">
        <ele>634.13</ele>
        <time>2022-11-20T11:40:06Z</time>
      </trkpt>
      <trkpt lat="45.47154" lon="4.08729">
        <ele>631.24</ele>
        <time>2022-11-20T11:40:19Z</time>
      </trkpt>
      <trkpt lat="45.47142" lon="4.0871">
        <ele>627.88</ele>
        <time>2022-11-20T11:40:36Z</time>
      </trkpt>
      <trkpt lat="45.47127" lon="4.08692">
        <ele>625.96</ele>
        <time>2022-11-20T11:40:53Z</time>
      </trkpt>
      <trkpt lat="45.47109" lon="4.08678">
        <ele>623.55</ele>
        <time>2022-11-20T11:41:11Z</time>
      </trkpt>
      <trkpt lat="45.47091" lon="4.08668">
        <ele>618.75</ele>
        <time>2022-11-20T11:41:26Z</time>
      </trkpt>
      <trkpt lat="45.4707" lon="4.08659">
        <ele>615.38</ele>
        <time>2022-11-20T11:41:45Z</time>
      </trkpt>
      <trkpt lat="45.47047" lon="4.08645">
        <ele>611.54</ele>
        <time>2022-11-20T11:42:02Z</time>
      </trkpt>
      <trkpt lat="45.47028" lon="4.08615">
        <ele>606.73</ele>
        <time>2022-11-20T11:42:15Z</time>
      </trkpt>
      <trkpt lat="45.47014" lon="4.08595">
        <ele>604.33</ele>
        <time>2022-11-20T11:42:30Z</time>
      </trkpt>
      <trkpt lat="45.46992" lon="4.08576">
        <ele>604.81</ele>
        <time>2022-11-20T11:42:51Z</time>
      </trkpt>
      <trkpt lat="45.46976" lon="4.08566">
        <ele>605.29</ele>
        <time>2022-11-20T11:43:07Z</time>
      </trkpt>
      <trkpt lat="45.4696" lon="4.08556">
        <ele>610.09</ele>
        <time>2022-11-20T11:43:24Z</time>
      </trkpt>
      <trkpt lat="45.46953" lon="4.08547">
        <ele>613.94</ele>
        <time>2022-11-20T11:43:32Z</time>
      </trkpt>
      <trkpt lat="45.46953" lon="4.08546">
        <ele>614.42</ele>
        <time>2022-11-20T11:43:33Z</time>
      </trkpt>
      <trkpt lat="45.46952" lon="4.08547">
        <ele>614.9</ele>
        <time>2022-11-20T11:43:34Z</time>
      </trkpt>
      <trkpt lat="45.46951" lon="4.08556">
        <ele>627.88</ele>
        <time>2022-11-20T11:43:48Z</time>
      </trkpt>
      <trkpt lat="45.46943" lon="4.08582">
        <ele>637.49</ele>
        <time>2022-11-20T11:44:06Z</time>
      </trkpt>
      <trkpt lat="45.46933" lon="4.08598">
        <ele>640.38</ele>
        <time>2022-11-20T11:44:17Z</time>
      </trkpt>
      <trkpt lat="45.46921" lon="4.08632">
        <ele>642.3</ele>
        <time>2022-11-20T11:44:31Z</time>
      </trkpt>
      <trkpt lat="45.46886" lon="4.08659">
        <ele>636.53</ele>
        <time>2022-11-20T11:44:50Z</time>
      </trkpt>
      <trkpt lat="45.46862" lon="4.08675">
        <ele>626.92</ele>
        <time>2022-11-20T11:45:04Z</time>
      </trkpt>
      <trkpt lat="45.46846" lon="4.08692">
        <ele>626.44</ele>
        <time>2022-11-20T11:45:23Z</time>
      </trkpt>
      <trkpt lat="45.46845" lon="4.08718">
        <ele>626.92</ele>
        <time>2022-11-20T11:45:39Z</time>
      </trkpt>
      <trkpt lat="45.46846" lon="4.08725">
        <ele>627.4</ele>
        <time>2022-11-20T11:45:43Z</time>
      </trkpt>
      <trkpt lat="45.46849" lon="4.08763">
        <ele>627.4</ele>
        <time>2022-11-20T11:45:59Z</time>
      </trkpt>
      <trkpt lat="45.46845" lon="4.08803">
        <ele>626.92</ele>
        <time>2022-11-20T11:46:16Z</time>
      </trkpt>
      <trkpt lat="45.4684" lon="4.08835">
        <ele>628.36</ele>
        <time>2022-11-20T11:46:32Z</time>
      </trkpt>
      <trkpt lat="45.46835" lon="4.08864">
        <ele>630.28</ele>
        <time>2022-11-20T11:46:48Z</time>
      </trkpt>
      <trkpt lat="45.46827" lon="4.08902">
        <ele>631.72</ele>
        <time>2022-11-20T11:47:07Z</time>
      </trkpt>
      <trkpt lat="45.46816" lon="4.08942">
        <ele>633.17</ele>
        <time>2022-11-20T11:47:27Z</time>
      </trkpt>
      <trkpt lat="45.468" lon="4.08973">
        <ele>634.61</ele>
        <time>2022-11-20T11:47:45Z</time>
      </trkpt>
      <trkpt lat="45.46784" lon="4.08993">
        <ele>638.93</ele>
        <time>2022-11-20T11:48:04Z</time>
      </trkpt>
      <trkpt lat="45.46779" lon="4.08996">
        <ele>639.89</ele>
        <time>2022-11-20T11:48:11Z</time>
      </trkpt>
      <trkpt lat="45.46778" lon="4.08997">
        <ele>639.89</ele>
        <time>2022-11-20T11:48:12Z</time>
      </trkpt>
      <trkpt lat="45.46777" lon="4.08998">
        <ele>639.89</ele>
        <time>2022-11-20T11:48:13Z</time>
      </trkpt>
      <trkpt lat="45.46776" lon="4.08999">
        <ele>639.89</ele>
        <time>2022-11-20T11:48:14Z</time>
      </trkpt>
      <trkpt lat="45.46774" lon="4.09">
        <ele>639.89</ele>
        <time>2022-11-20T11:48:15Z</time>
      </trkpt>
      <trkpt lat="45.46773" lon="4.09002">
        <ele>639.89</ele>
        <time>2022-11-20T11:48:16Z</time>
      </trkpt>
      <trkpt lat="45.4675" lon="4.09022">
        <ele>643.26</ele>
        <time>2022-11-20T11:48:33Z</time>
      </trkpt>
      <trkpt lat="45.4673" lon="4.09035">
        <ele>646.62</ele>
        <time>2022-11-20T11:48:50Z</time>
      </trkpt>
      <trkpt lat="45.46703" lon="4.09039">
        <ele>645.18</ele>
        <time>2022-11-20T11:49:10Z</time>
      </trkpt>
      <trkpt lat="45.46679" lon="4.0904">
        <ele>644.22</ele>
        <time>2022-11-20T11:49:29Z</time>
      </trkpt>
      <trkpt lat="45.4665" lon="4.09048">
        <ele>642.78</ele>
        <time>2022-11-20T11:49:53Z</time>
      </trkpt>
      <trkpt lat="45.46643" lon="4.09056">
        <ele>639.41</ele>
        <time>2022-11-20T11:50:08Z</time>
      </trkpt>
      <trkpt lat="45.46636" lon="4.09055">
        <ele>638.45</ele>
        <time>2022-11-20T11:50:14Z</time>
      </trkpt>
      <trkpt lat="45.46628" lon="4.09083">
        <ele>637.01</ele>
        <time>2022-11-20T11:50:33Z</time>
      </trkpt>
      <trkpt lat="45.4663" lon="4.09103">
        <ele>636.53</ele>
        <time>2022-11-20T11:50:48Z</time>
      </trkpt>
      <trkpt lat="45.46636" lon="4.09127">
        <ele>635.09</ele>
        <time>2022-11-20T11:51:02Z</time>
      </trkpt>
      <trkpt lat="45.46637" lon="4.09129">
        <ele>634.61</ele>
        <time>2022-11-20T11:51:03Z</time>
      </trkpt>
      <trkpt lat="45.46656" lon="4.09165">
        <ele>631.24</ele>
        <time>2022-11-20T11:51:26Z</time>
      </trkpt>
      <trkpt lat="45.46658" lon="4.0917">
        <ele>629.32</ele>
        <time>2022-11-20T11:51:45Z</time>
      </trkpt>
      <trkpt lat="45.46662" lon="4.09175">
        <ele>628.36</ele>
        <time>2022-11-20T11:52:06Z</time>
      </trkpt>
      <trkpt lat="45.46677" lon="4.09191">
        <ele>627.4</ele>
        <time>2022-11-20T11:52:26Z</time>
      </trkpt>
      <trkpt lat="45.4668" lon="4.09193">
        <ele>626.92</ele>
        <time>2022-11-20T11:52:54Z</time>
      </trkpt>
      <trkpt lat="45.46679" lon="4.09193">
        <ele>627.88</ele>
        <time>2022-11-20T11:53:12Z</time>
      </trkpt>
      <trkpt lat="45.46681" lon="4.09194">
        <ele>627.88</ele>
        <time>2022-11-20T11:53:30Z</time>
      </trkpt>
      <trkpt lat="45.46679" lon="4.09196">
        <ele>627.88</ele>
        <time>2022-11-20T11:53:44Z</time>
      </trkpt>
      <trkpt lat="45.4668" lon="4.09194">
        <ele>629.8</ele>
        <time>2022-11-20T11:53:58Z</time>
      </trkpt>
      <trkpt lat="45.46679" lon="4.09197">
        <ele>629.32</ele>
        <time>2022-11-20T11:54:12Z</time>
      </trkpt>
      <trkpt lat="45.4668" lon="4.09198">
        <ele>626.92</ele>
        <time>2022-11-20T11:54:28Z</time>
      </trkpt>
      <trkpt lat="45.46682" lon="4.09202">
        <ele>626.92</ele>
        <time>2022-11-20T11:54:45Z</time>
      </trkpt>
      <trkpt lat="45.46682" lon="4.09206">
        <ele>626.44</ele>
        <time>2022-11-20T11:55:05Z</time>
      </trkpt>
      <trkpt lat="45.46676" lon="4.09208">
        <ele>626.92</ele>
        <time>2022-11-20T11:55:23Z</time>
      </trkpt>
      <trkpt lat="45.4668" lon="4.09203">
        <ele>626.44</ele>
        <time>2022-11-20T11:55:47Z</time>
      </trkpt>
      <trkpt lat="45.4668" lon="4.09198">
        <ele>627.4</ele>
        <time>2022-11-20T11:56:11Z</time>
      </trkpt>
      <trkpt lat="45.4668" lon="4.09198">
        <ele>626.92</ele>
        <time>2022-11-20T11:56:29Z</time>
      </trkpt>
      <trkpt lat="45.46679" lon="4.09198">
        <ele>628.36</ele>
        <time>2022-11-20T11:56:45Z</time>
      </trkpt>
      <trkpt lat="45.46682" lon="4.09203">
        <ele>629.8</ele>
        <time>2022-11-20T11:57:04Z</time>
      </trkpt>
      <trkpt lat="45.46682" lon="4.09204">
        <ele>628.36</ele>
        <time>2022-11-20T11:57:24Z</time>
      </trkpt>
      <trkpt lat="45.46679" lon="4.09206">
        <ele>627.4</ele>
        <time>2022-11-20T11:57:42Z</time>
      </trkpt>
      <trkpt lat="45.46676" lon="4.0921">
        <ele>626.92</ele>
        <time>2022-11-20T11:57:59Z</time>
      </trkpt>
      <trkpt lat="45.46677" lon="4.09209">
        <ele>623.55</ele>
        <time>2022-11-20T11:58:21Z</time>
      </trkpt>
      <trkpt lat="45.46677" lon="4.09209">
        <ele>623.55</ele>
        <time>2022-11-20T11:58:41Z</time>
      </trkpt>
      <trkpt lat="45.46676" lon="4.09211">
        <ele>623.55</ele>
        <time>2022-11-20T11:59:07Z</time>
      </trkpt>
      <trkpt lat="45.46675" lon="4.09208">
        <ele>621.15</ele>
        <time>2022-11-20T11:59:32Z</time>
      </trkpt>
      <trkpt lat="45.46678" lon="4.09209">
        <ele>622.59</ele>
        <time>2022-11-20T11:59:52Z</time>
      </trkpt>
      <trkpt lat="45.46678" lon="4.09205">
        <ele>624.03</ele>
        <time>2022-11-20T12:00:14Z</time>
      </trkpt>
      <trkpt lat="45.46675" lon="4.09205">
        <ele>623.55</ele>
        <time>2022-11-20T12:00:39Z</time>
      </trkpt>
      <trkpt lat="45.4667" lon="4.09204">
        <ele>621.63</ele>
        <time>2022-11-20T12:01:04Z</time>
      </trkpt>
      <trkpt lat="45.46674" lon="4.09207">
        <ele>623.07</ele>
        <time>2022-11-20T12:01:26Z</time>
      </trkpt>
      <trkpt lat="45.46678" lon="4.09208">
        <ele>621.63</ele>
        <time>2022-11-20T12:01:47Z</time>
      </trkpt>
      <trkpt lat="45.46678" lon="4.09209">
        <ele>622.59</ele>
        <time>2022-11-20T12:02:04Z</time>
      </trkpt>
      <trkpt lat="45.46677" lon="4.09208">
        <ele>620.67</ele>
        <time>2022-11-20T12:02:37Z</time>
      </trkpt>
      <trkpt lat="45.4668" lon="4.09212">
        <ele>621.15</ele>
        <time>2022-11-20T12:03:01Z</time>
      </trkpt>
      <trkpt lat="45.4668" lon="4.09206">
        <ele>625.47</ele>
        <time>2022-11-20T12:03:21Z</time>
      </trkpt>
      <trkpt lat="45.46679" lon="4.09208">
        <ele>625.47</ele>
        <time>2022-11-20T12:03:48Z</time>
      </trkpt>
      <trkpt lat="45.46677" lon="4.09208">
        <ele>624.99</ele>
        <time>2022-11-20T12:04:14Z</time>
      </trkpt>
      <trkpt lat="45.46674" lon="4.09211">
        <ele>621.63</ele>
        <time>2022-11-20T12:04:41Z</time>
      </trkpt>
      <trkpt lat="45.46682" lon="4.09206">
        <ele>625.96</ele>
        <time>2022-11-20T12:05:03Z</time>
      </trkpt>
      <trkpt lat="45.4668" lon="4.09208">
        <ele>626.44</ele>
        <time>2022-11-20T12:05:31Z</time>
      </trkpt>
      <trkpt lat="45.46678" lon="4.09211">
        <ele>624.51</ele>
        <time>2022-11-20T12:05:58Z</time>
      </trkpt>
      <trkpt lat="45.46676" lon="4.09211">
        <ele>624.51</ele>
        <time>2022-11-20T12:06:21Z</time>
      </trkpt>
      <trkpt lat="45.46678" lon="4.0921">
        <ele>623.55</ele>
        <time>2022-11-20T12:06:48Z</time>
      </trkpt>
      <trkpt lat="45.46678" lon="4.09202">
        <ele>624.99</ele>
        <time>2022-11-20T12:07:04Z</time>
      </trkpt>
      <trkpt lat="45.46678" lon="4.092">
        <ele>624.99</ele>
        <time>2022-11-20T12:07:30Z</time>
      </trkpt>
      <trkpt lat="45.46678" lon="4.09198">
        <ele>628.36</ele>
        <time>2022-11-20T12:08:05Z</time>
      </trkpt>
      <trkpt lat="45.46678" lon="4.09199">
        <ele>627.88</ele>
        <time>2022-11-20T12:08:28Z</time>
      </trkpt>
      <trkpt lat="45.46679" lon="4.09203">
        <ele>628.36</ele>
        <time>2022-11-20T12:08:54Z</time>
      </trkpt>
      <trkpt lat="45.46679" lon="4.09206">
        <ele>625.96</ele>
        <time>2022-11-20T12:09:09Z</time>
      </trkpt>
      <trkpt lat="45.46681" lon="4.09206">
        <ele>625.47</ele>
        <time>2022-11-20T12:09:28Z</time>
      </trkpt>
      <trkpt lat="45.46679" lon="4.09203">
        <ele>627.4</ele>
        <time>2022-11-20T12:09:46Z</time>
      </trkpt>
      <trkpt lat="45.46677" lon="4.09194">
        <ele>630.28</ele>
        <time>2022-11-20T12:09:59Z</time>
      </trkpt>
      <trkpt lat="45.46674" lon="4.09187">
        <ele>631.72</ele>
        <time>2022-11-20T12:10:15Z</time>
      </trkpt>
      <trkpt lat="45.46668" lon="4.09193">
        <ele>628.36</ele>
        <time>2022-11-20T12:10:30Z</time>
      </trkpt>
      <trkpt lat="45.46666" lon="4.09192">
        <ele>624.99</ele>
        <time>2022-11-20T12:10:56Z</time>
      </trkpt>
      <trkpt lat="45.46666" lon="4.09191">
        <ele>626.92</ele>
        <time>2022-11-20T12:11:19Z</time>
      </trkpt>
      <trkpt lat="45.46665" lon="4.09193">
        <ele>627.4</ele>
        <time>2022-11-20T12:11:44Z</time>
      </trkpt>
      <trkpt lat="45.46662" lon="4.09192">
        <ele>627.88</ele>
        <time>2022-11-20T12:12:06Z</time>
      </trkpt>
      <trkpt lat="45.46662" lon="4.09193">
        <ele>629.32</ele>
        <time>2022-11-20T12:12:41Z</time>
      </trkpt>
      <trkpt lat="45.4666" lon="4.09191">
        <ele>624.99</ele>
        <time>2022-11-20T12:13:14Z</time>
      </trkpt>
      <trkpt lat="45.4666" lon="4.0919">
        <ele>622.59</ele>
        <time>2022-11-20T12:13:45Z</time>
      </trkpt>
      <trkpt lat="45.46658" lon="4.09188">
        <ele>623.07</ele>
        <time>2022-11-20T12:14:19Z</time>
      </trkpt>
      <trkpt lat="45.46661" lon="4.09189">
        <ele>623.55</ele>
        <time>2022-11-20T12:14:55Z</time>
      </trkpt>
      <trkpt lat="45.46661" lon="4.09188">
        <ele>627.4</ele>
        <time>2022-11-20T12:15:35Z</time>
      </trkpt>
      <trkpt lat="45.46661" lon="4.09187">
        <ele>625.47</ele>
        <time>2022-11-20T12:16:13Z</time>
      </trkpt>
      <trkpt lat="45.46661" lon="4.0919">
        <ele>629.8</ele>
        <time>2022-11-20T12:16:50Z</time>
      </trkpt>
      <trkpt lat="45.46659" lon="4.09186">
        <ele>627.88</ele>
        <time>2022-11-20T12:17:28Z</time>
      </trkpt>
      <trkpt lat="45.4666" lon="4.09188">
        <ele>627.88</ele>
        <time>2022-11-20T12:18:02Z</time>
      </trkpt>
      <trkpt lat="45.46662" lon="4.09194">
        <ele>626.44</ele>
        <time>2022-11-20T12:18:38Z</time>
      </trkpt>
      <trkpt lat="45.46661" lon="4.09193">
        <ele>625.47</ele>
        <time>2022-11-20T12:19:11Z</time>
      </trkpt>
      <trkpt lat="45.46662" lon="4.09196">
        <ele>624.51</ele>
        <time>2022-11-20T12:19:46Z</time>
      </trkpt>
      <trkpt lat="45.4666" lon="4.09189">
        <ele>626.92</ele>
        <time>2022-11-20T12:20:13Z</time>
      </trkpt>
      <trkpt lat="45.4666" lon="4.09192">
        <ele>625.96</ele>
        <time>2022-11-20T12:20:48Z</time>
      </trkpt>
      <trkpt lat="45.4666" lon="4.09191">
        <ele>625.47</ele>
        <time>2022-11-20T12:21:21Z</time>
      </trkpt>
      <trkpt lat="45.46661" lon="4.09191">
        <ele>627.88</ele>
        <time>2022-11-20T12:21:49Z</time>
      </trkpt>
      <trkpt lat="45.4666" lon="4.09188">
        <ele>626.92</ele>
        <time>2022-11-20T12:22:20Z</time>
      </trkpt>
      <trkpt lat="45.4666" lon="4.09187">
        <ele>628.36</ele>
        <time>2022-11-20T12:22:49Z</time>
      </trkpt>
      <trkpt lat="45.46661" lon="4.09186">
        <ele>628.36</ele>
        <time>2022-11-20T12:23:31Z</time>
      </trkpt>
      <trkpt lat="45.46661" lon="4.09188">
        <ele>630.28</ele>
        <time>2022-11-20T12:24:09Z</time>
      </trkpt>
      <trkpt lat="45.4666" lon="4.09185">
        <ele>632.2</ele>
        <time>2022-11-20T12:24:41Z</time>
      </trkpt>
      <trkpt lat="45.46659" lon="4.09185">
        <ele>630.76</ele>
        <time>2022-11-20T12:25:15Z</time>
      </trkpt>
      <trkpt lat="45.46658" lon="4.09185">
        <ele>627.88</ele>
        <time>2022-11-20T12:25:47Z</time>
      </trkpt>
      <trkpt lat="45.4666" lon="4.09186">
        <ele>627.88</ele>
        <time>2022-11-20T12:26:20Z</time>
      </trkpt>
      <trkpt lat="45.4666" lon="4.09187">
        <ele>626.44</ele>
        <time>2022-11-20T12:26:59Z</time>
      </trkpt>
      <trkpt lat="45.46658" lon="4.09183">
        <ele>627.88</ele>
        <time>2022-11-20T12:27:32Z</time>
      </trkpt>
      <trkpt lat="45.46657" lon="4.09186">
        <ele>626.44</ele>
        <time>2022-11-20T12:28:13Z</time>
      </trkpt>
      <trkpt lat="45.46658" lon="4.09188">
        <ele>624.03</ele>
        <time>2022-11-20T12:28:55Z</time>
      </trkpt>
      <trkpt lat="45.46658" lon="4.09186">
        <ele>626.44</ele>
        <time>2022-11-20T12:29:40Z</time>
      </trkpt>
      <trkpt lat="45.46655" lon="4.09182">
        <ele>626.44</ele>
        <time>2022-11-20T12:30:16Z</time>
      </trkpt>
      <trkpt lat="45.46658" lon="4.09186">
        <ele>626.44</ele>
        <time>2022-11-20T12:30:52Z</time>
      </trkpt>
      <trkpt lat="45.46659" lon="4.09183">
        <ele>625.47</ele>
        <time>2022-11-20T12:31:30Z</time>
      </trkpt>
      <trkpt lat="45.46661" lon="4.09187">
        <ele>628.84</ele>
        <time>2022-11-20T12:32:11Z</time>
      </trkpt>
      <trkpt lat="45.46659" lon="4.09186">
        <ele>627.88</ele>
        <time>2022-11-20T12:32:44Z</time>
      </trkpt>
      <trkpt lat="45.46661" lon="4.09189">
        <ele>627.4</ele>
        <time>2022-11-20T12:33:20Z</time>
      </trkpt>
      <trkpt lat="45.4666" lon="4.09184">
        <ele>626.92</ele>
        <time>2022-11-20T12:33:47Z</time>
      </trkpt>
      <trkpt lat="45.46659" lon="4.09186">
        <ele>627.4</ele>
        <time>2022-11-20T12:34:10Z</time>
      </trkpt>
      <trkpt lat="45.46661" lon="4.09189">
        <ele>627.4</ele>
        <time>2022-11-20T12:34:50Z</time>
      </trkpt>
      <trkpt lat="45.4666" lon="4.09184">
        <ele>626.44</ele>
        <time>2022-11-20T12:35:34Z</time>
      </trkpt>
      <trkpt lat="45.46658" lon="4.09186">
        <ele>624.99</ele>
        <time>2022-11-20T12:36:10Z</time>
      </trkpt>
      <trkpt lat="45.46659" lon="4.09187">
        <ele>626.44</ele>
        <time>2022-11-20T12:36:37Z</time>
      </trkpt>
      <trkpt lat="45.46659" lon="4.09185">
        <ele>627.88</ele>
        <time>2022-11-20T12:37:09Z</time>
      </trkpt>
      <trkpt lat="45.4666" lon="4.09188">
        <ele>629.32</ele>
        <time>2022-11-20T12:37:44Z</time>
      </trkpt>
      <trkpt lat="45.46661" lon="4.09193">
        <ele>626.44</ele>
        <time>2022-11-20T12:38:18Z</time>
      </trkpt>
      <trkpt lat="45.46661" lon="4.09188">
        <ele>626.92</ele>
        <time>2022-11-20T12:38:51Z</time>
      </trkpt>
      <trkpt lat="45.46658" lon="4.09184">
        <ele>624.51</ele>
        <time>2022-11-20T12:39:30Z</time>
      </trkpt>
      <trkpt lat="45.46659" lon="4.09184">
        <ele>624.99</ele>
        <time>2022-11-20T12:40:06Z</time>
      </trkpt>
      <trkpt lat="45.46659" lon="4.09184">
        <ele>624.51</ele>
        <time>2022-11-20T12:40:35Z</time>
      </trkpt>
      <trkpt lat="45.46662" lon="4.09191">
        <ele>624.51</ele>
        <time>2022-11-20T12:40:59Z</time>
      </trkpt>
      <trkpt lat="45.46659" lon="4.09177">
        <ele>626.44</ele>
        <time>2022-11-20T12:41:25Z</time>
      </trkpt>
      <trkpt lat="45.46658" lon="4.09183">
        <ele>632.68</ele>
        <time>2022-11-20T12:42:04Z</time>
      </trkpt>
      <trkpt lat="45.46657" lon="4.09185">
        <ele>631.72</ele>
        <time>2022-11-20T12:42:44Z</time>
      </trkpt>
      <trkpt lat="45.46657" lon="4.09186">
        <ele>623.55</ele>
        <time>2022-11-20T12:43:32Z</time>
      </trkpt>
      <trkpt lat="45.46656" lon="4.09188">
        <ele>621.15</ele>
        <time>2022-11-20T12:44:13Z</time>
      </trkpt>
      <trkpt lat="45.46656" lon="4.09185">
        <ele>623.07</ele>
        <time>2022-11-20T12:44:51Z</time>
      </trkpt>
      <trkpt lat="45.4666" lon="4.0919">
        <ele>622.11</ele>
        <time>2022-11-20T12:45:26Z</time>
      </trkpt>
      <trkpt lat="45.46663" lon="4.09195">
        <ele>627.88</ele>
        <time>2022-11-20T12:45:57Z</time>
      </trkpt>
      <trkpt lat="45.46663" lon="4.09186">
        <ele>627.88</ele>
        <time>2022-11-20T12:46:35Z</time>
      </trkpt>
      <trkpt lat="45.46661" lon="4.09185">
        <ele>625.96</ele>
        <time>2022-11-20T12:47:09Z</time>
      </trkpt>
      <trkpt lat="45.46658" lon="4.09184">
        <ele>626.44</ele>
        <time>2022-11-20T12:47:45Z</time>
      </trkpt>
      <trkpt lat="45.46659" lon="4.0919">
        <ele>624.51</ele>
        <time>2022-11-20T12:48:16Z</time>
      </trkpt>
      <trkpt lat="45.46658" lon="4.09185">
        <ele>623.07</ele>
        <time>2022-11-20T12:48:51Z</time>
      </trkpt>
      <trkpt lat="45.46661" lon="4.0919">
        <ele>623.55</ele>
        <time>2022-11-20T12:49:25Z</time>
      </trkpt>
      <trkpt lat="45.46659" lon="4.09184">
        <ele>623.07</ele>
        <time>2022-11-20T12:49:55Z</time>
      </trkpt>
      <trkpt lat="45.46657" lon="4.09184">
        <ele>624.99</ele>
        <time>2022-11-20T12:50:29Z</time>
      </trkpt>
      <trkpt lat="45.46656" lon="4.09179">
        <ele>624.03</ele>
        <time>2022-11-20T12:51:09Z</time>
      </trkpt>
      <trkpt lat="45.46655" lon="4.09178">
        <ele>625.47</ele>
        <time>2022-11-20T12:51:46Z</time>
      </trkpt>
      <trkpt lat="45.46658" lon="4.09181">
        <ele>626.92</ele>
        <time>2022-11-20T12:52:22Z</time>
      </trkpt>
      <trkpt lat="45.46657" lon="4.09185">
        <ele>626.44</ele>
        <time>2022-11-20T12:52:55Z</time>
      </trkpt>
      <trkpt lat="45.46655" lon="4.09183">
        <ele>623.55</ele>
        <time>2022-11-20T12:53:27Z</time>
      </trkpt>
      <trkpt lat="45.46656" lon="4.09183">
        <ele>624.51</ele>
        <time>2022-11-20T12:54:08Z</time>
      </trkpt>
      <trkpt lat="45.4666" lon="4.09189">
        <ele>624.51</ele>
        <time>2022-11-20T12:54:43Z</time>
      </trkpt>
      <trkpt lat="45.46658" lon="4.09183">
        <ele>624.99</ele>
        <time>2022-11-20T12:55:25Z</time>
      </trkpt>
      <trkpt lat="45.4666" lon="4.09188">
        <ele>623.07</ele>
        <time>2022-11-20T12:56:14Z</time>
      </trkpt>
      <trkpt lat="45.46659" lon="4.0919">
        <ele>623.07</ele>
        <time>2022-11-20T12:56:52Z</time>
      </trkpt>
      <trkpt lat="45.46658" lon="4.09184">
        <ele>625.96</ele>
        <time>2022-11-20T12:57:28Z</time>
      </trkpt>
      <trkpt lat="45.46657" lon="4.09186">
        <ele>623.07</ele>
        <time>2022-11-20T12:58:01Z</time>
      </trkpt>
      <trkpt lat="45.46659" lon="4.09189">
        <ele>622.11</ele>
        <time>2022-11-20T12:58:31Z</time>
      </trkpt>
      <trkpt lat="45.4666" lon="4.09187">
        <ele>622.11</ele>
        <time>2022-11-20T12:59:00Z</time>
      </trkpt>
      <trkpt lat="45.4666" lon="4.09187">
        <ele>624.51</ele>
        <time>2022-11-20T12:59:30Z</time>
      </trkpt>
      <trkpt lat="45.46659" lon="4.09185">
        <ele>624.51</ele>
        <time>2022-11-20T13:00:07Z</time>
      </trkpt>
      <trkpt lat="45.46658" lon="4.09186">
        <ele>622.59</ele>
        <time>2022-11-20T13:00:43Z</time>
      </trkpt>
      <trkpt lat="45.46657" lon="4.09188">
        <ele>619.71</ele>
        <time>2022-11-20T13:01:10Z</time>
      </trkpt>
      <trkpt lat="45.46657" lon="4.09191">
        <ele>621.15</ele>
        <time>2022-11-20T13:01:44Z</time>
      </trkpt>
      <trkpt lat="45.46657" lon="4.09187">
        <ele>621.15</ele>
        <time>2022-11-20T13:02:14Z</time>
      </trkpt>
      <trkpt lat="45.46656" lon="4.09183">
        <ele>622.11</ele>
        <time>2022-11-20T13:02:43Z</time>
      </trkpt>
      <trkpt lat="45.46658" lon="4.09183">
        <ele>623.07</ele>
        <time>2022-11-20T13:03:12Z</time>
      </trkpt>
      <trkpt lat="45.46657" lon="4.09181">
        <ele>625.96</ele>
        <time>2022-11-20T13:03:37Z</time>
      </trkpt>
      <trkpt lat="45.46659" lon="4.09182">
        <ele>627.88</ele>
        <time>2022-11-20T13:03:52Z</time>
      </trkpt>
      <trkpt lat="45.46667" lon="4.09186">
        <ele>627.4</ele>
        <time>2022-11-20T13:04:09Z</time>
      </trkpt>
      <trkpt lat="45.46675" lon="4.09186">
        <ele>627.88</ele>
        <time>2022-11-20T13:04:24Z</time>
      </trkpt>
      <trkpt lat="45.46676" lon="4.09187">
        <ele>627.88</ele>
        <time>2022-11-20T13:04:25Z</time>
      </trkpt>
      <trkpt lat="45.46678" lon="4.09205">
        <ele>627.4</ele>
        <time>2022-11-20T13:04:40Z</time>
      </trkpt>
      <trkpt lat="45.4668" lon="4.09204">
        <ele>627.88</ele>
        <time>2022-11-20T13:04:55Z</time>
      </trkpt>
      <trkpt lat="45.46685" lon="4.09208">
        <ele>627.88</ele>
        <time>2022-11-20T13:05:13Z</time>
      </trkpt>
      <trkpt lat="45.46686" lon="4.09206">
        <ele>625.96</ele>
        <time>2022-11-20T13:05:30Z</time>
      </trkpt>
      <trkpt lat="45.46686" lon="4.09212">
        <ele>624.99</ele>
        <time>2022-11-20T13:05:48Z</time>
      </trkpt>
      <trkpt lat="45.46679" lon="4.09203">
        <ele>624.03</ele>
        <time>2022-11-20T13:06:09Z</time>
      </trkpt>
      <trkpt lat="45.46674" lon="4.09204">
        <ele>622.59</ele>
        <time>2022-11-20T13:06:30Z</time>
      </trkpt>
      <trkpt lat="45.46667" lon="4.09206">
        <ele>620.67</ele>
        <time>2022-11-20T13:06:40Z</time>
      </trkpt>
      <trkpt lat="45.46666" lon="4.09206">
        <ele>620.67</ele>
        <time>2022-11-20T13:06:41Z</time>
      </trkpt>
      <trkpt lat="45.46665" lon="4.09206">
        <ele>620.19</ele>
        <time>2022-11-20T13:06:42Z</time>
      </trkpt>
      <trkpt lat="45.46664" lon="4.09206">
        <ele>620.19</ele>
        <time>2022-11-20T13:06:43Z</time>
      </trkpt>
      <trkpt lat="45.46662" lon="4.09206">
        <ele>619.71</ele>
        <time>2022-11-20T13:06:44Z</time>
      </trkpt>
      <trkpt lat="45.46648" lon="4.09204">
        <ele>615.86</ele>
        <time>2022-11-20T13:07:05Z</time>
      </trkpt>
      <trkpt lat="45.4667" lon="4.09209">
        <ele>616.82</ele>
        <time>2022-11-20T13:07:30Z</time>
      </trkpt>
      <trkpt lat="45.4668" lon="4.09208">
        <ele>621.15</ele>
        <time>2022-11-20T13:07:53Z</time>
      </trkpt>
      <trkpt lat="45.46683" lon="4.09208">
        <ele>621.15</ele>
        <time>2022-11-20T13:08:13Z</time>
      </trkpt>
      <trkpt lat="45.4668" lon="4.09206">
        <ele>622.11</ele>
        <time>2022-11-20T13:08:31Z</time>
      </trkpt>
      <trkpt lat="45.4668" lon="4.09206">
        <ele>622.59</ele>
        <time>2022-11-20T13:08:54Z</time>
      </trkpt>
      <trkpt lat="45.46674" lon="4.09207">
        <ele>622.11</ele>
        <time>2022-11-20T13:09:19Z</time>
      </trkpt>
      <trkpt lat="45.46686" lon="4.09208">
        <ele>623.55</ele>
        <time>2022-11-20T13:09:37Z</time>
      </trkpt>
      <trkpt lat="45.46679" lon="4.09206">
        <ele>621.63</ele>
        <time>2022-11-20T13:09:55Z</time>
      </trkpt>
      <trkpt lat="45.46672" lon="4.09205">
        <ele>621.63</ele>
        <time>2022-11-20T13:10:24Z</time>
      </trkpt>
      <trkpt lat="45.46672" lon="4.09206">
        <ele>622.11</ele>
        <time>2022-11-20T13:10:54Z</time>
      </trkpt>
      <trkpt lat="45.46688" lon="4.09211">
        <ele>621.15</ele>
        <time>2022-11-20T13:11:15Z</time>
      </trkpt>
      <trkpt lat="45.4668" lon="4.09204">
        <ele>623.07</ele>
        <time>2022-11-20T13:11:37Z</time>
      </trkpt>
      <trkpt lat="45.46681" lon="4.09199">
        <ele>628.36</ele>
        <time>2022-11-20T13:11:48Z</time>
      </trkpt>
      <trkpt lat="45.46685" lon="4.09202">
        <ele>627.88</ele>
        <time>2022-11-20T13:11:56Z</time>
      </trkpt>
      <trkpt lat="45.4668" lon="4.09206">
        <ele>627.4</ele>
        <time>2022-11-20T13:12:11Z</time>
      </trkpt>
      <trkpt lat="45.46687" lon="4.09205">
        <ele>625.47</ele>
        <time>2022-11-20T13:12:27Z</time>
      </trkpt>
      <trkpt lat="45.46674" lon="4.09207">
        <ele>624.99</ele>
        <time>2022-11-20T13:12:47Z</time>
      </trkpt>
      <trkpt lat="45.4668" lon="4.09199">
        <ele>624.51</ele>
        <time>2022-11-20T13:12:56Z</time>
      </trkpt>
      <trkpt lat="45.46687" lon="4.09209">
        <ele>624.99</ele>
        <time>2022-11-20T13:13:05Z</time>
      </trkpt>
      <trkpt lat="45.46685" lon="4.09211">
        <ele>623.55</ele>
        <time>2022-11-20T13:13:16Z</time>
      </trkpt>
      <trkpt lat="45.46681" lon="4.0921">
        <ele>624.03</ele>
        <time>2022-11-20T13:13:37Z</time>
      </trkpt>
      <trkpt lat="45.46681" lon="4.09211">
        <ele>624.03</ele>
        <time>2022-11-20T13:14:02Z</time>
      </trkpt>
      <trkpt lat="45.46686" lon="4.0921">
        <ele>624.99</ele>
        <time>2022-11-20T13:14:22Z</time>
      </trkpt>
      <trkpt lat="45.46681" lon="4.09204">
        <ele>626.44</ele>
        <time>2022-11-20T13:14:37Z</time>
      </trkpt>
      <trkpt lat="45.46682" lon="4.09206">
        <ele>627.88</ele>
        <time>2022-11-20T13:14:54Z</time>
      </trkpt>
      <trkpt lat="45.46683" lon="4.09206">
        <ele>628.36</ele>
        <time>2022-11-20T13:15:07Z</time>
      </trkpt>
      <trkpt lat="45.46682" lon="4.09202">
        <ele>626.92</ele>
        <time>2022-11-20T13:15:24Z</time>
      </trkpt>
      <trkpt lat="45.46678" lon="4.09203">
        <ele>626.44</ele>
        <time>2022-11-20T13:15:43Z</time>
      </trkpt>
      <trkpt lat="45.46676" lon="4.09199">
        <ele>624.51</ele>
        <time>2022-11-20T13:16:04Z</time>
      </trkpt>
      <trkpt lat="45.46677" lon="4.09202">
        <ele>624.51</ele>
        <time>2022-11-20T13:16:18Z</time>
      </trkpt>
      <trkpt lat="45.4668" lon="4.09202">
        <ele>622.59</ele>
        <time>2022-11-20T13:16:43Z</time>
      </trkpt>
      <trkpt lat="45.46679" lon="4.09201">
        <ele>624.51</ele>
        <time>2022-11-20T13:17:05Z</time>
      </trkpt>
      <trkpt lat="45.4668" lon="4.09202">
        <ele>624.51</ele>
        <time>2022-11-20T13:17:25Z</time>
      </trkpt>
      <trkpt lat="45.46677" lon="4.09202">
        <ele>624.03</ele>
        <time>2022-11-20T13:17:42Z</time>
      </trkpt>
      <trkpt lat="45.46677" lon="4.09201">
        <ele>628.36</ele>
        <time>2022-11-20T13:17:59Z</time>
      </trkpt>
      <trkpt lat="45.4668" lon="4.09198">
        <ele>627.88</ele>
        <time>2022-11-20T13:18:18Z</time>
      </trkpt>
      <trkpt lat="45.46682" lon="4.09197">
        <ele>625.96</ele>
        <time>2022-11-20T13:18:32Z</time>
      </trkpt>
      <trkpt lat="45.46681" lon="4.09196">
        <ele>626.92</ele>
        <time>2022-11-20T13:18:46Z</time>
      </trkpt>
      <trkpt lat="45.46682" lon="4.09202">
        <ele>626.92</ele>
        <time>2022-11-20T13:19:03Z</time>
      </trkpt>
      <trkpt lat="45.46683" lon="4.092">
        <ele>626.92</ele>
        <time>2022-11-20T13:19:17Z</time>
      </trkpt>
      <trkpt lat="45.46683" lon="4.09198">
        <ele>626.92</ele>
        <time>2022-11-20T13:19:36Z</time>
      </trkpt>
      <trkpt lat="45.46679" lon="4.092">
        <ele>628.36</ele>
        <time>2022-11-20T13:20:00Z</time>
      </trkpt>
      <trkpt lat="45.46677" lon="4.09202">
        <ele>627.4</ele>
        <time>2022-11-20T13:20:27Z</time>
      </trkpt>
      <trkpt lat="45.46667" lon="4.09187">
        <ele>625.96</ele>
        <time>2022-11-20T13:20:46Z</time>
      </trkpt>
      <trkpt lat="45.46648" lon="4.09159">
        <ele>627.4</ele>
        <time>2022-11-20T13:21:07Z</time>
      </trkpt>
      <trkpt lat="45.4663" lon="4.09132">
        <ele>628.36</ele>
        <time>2022-11-20T13:21:27Z</time>
      </trkpt>
      <trkpt lat="45.4663" lon="4.0913">
        <ele>631.72</ele>
        <time>2022-11-20T13:21:42Z</time>
      </trkpt>
      <trkpt lat="45.46616" lon="4.09138">
        <ele>636.53</ele>
        <time>2022-11-20T13:22:00Z</time>
      </trkpt>
      <trkpt lat="45.46599" lon="4.09151">
        <ele>633.17</ele>
        <time>2022-11-20T13:22:18Z</time>
      </trkpt>
      <trkpt lat="45.46593" lon="4.09161">
        <ele>624.99</ele>
        <time>2022-11-20T13:22:27Z</time>
      </trkpt>
      <trkpt lat="45.46591" lon="4.09162">
        <ele>624.51</ele>
        <time>2022-11-20T13:22:28Z</time>
      </trkpt>
      <trkpt lat="45.46566" lon="4.09179">
        <ele>616.82</ele>
        <time>2022-11-20T13:22:46Z</time>
      </trkpt>
      <trkpt lat="45.46538" lon="4.09196">
        <ele>613.94</ele>
        <time>2022-11-20T13:23:06Z</time>
      </trkpt>
      <trkpt lat="45.46521" lon="4.09222">
        <ele>615.86</ele>
        <time>2022-11-20T13:23:24Z</time>
      </trkpt>
      <trkpt lat="45.46518" lon="4.09226">
        <ele>617.3</ele>
        <time>2022-11-20T13:23:39Z</time>
      </trkpt>
      <trkpt lat="45.46516" lon="4.09236">
        <ele>616.82</ele>
        <time>2022-11-20T13:24:03Z</time>
      </trkpt>
      <trkpt lat="45.46502" lon="4.09269">
        <ele>619.23</ele>
        <time>2022-11-20T13:24:20Z</time>
      </trkpt>
      <trkpt lat="45.46491" lon="4.09312">
        <ele>622.11</ele>
        <time>2022-11-20T13:24:39Z</time>
      </trkpt>
      <trkpt lat="45.46479" lon="4.09354">
        <ele>623.55</ele>
        <time>2022-11-20T13:24:59Z</time>
      </trkpt>
      <trkpt lat="45.46468" lon="4.0939">
        <ele>624.51</ele>
        <time>2022-11-20T13:25:18Z</time>
      </trkpt>
      <trkpt lat="45.46462" lon="4.09419">
        <ele>626.92</ele>
        <time>2022-11-20T13:25:34Z</time>
      </trkpt>
      <trkpt lat="45.46446" lon="4.0945">
        <ele>626.44</ele>
        <time>2022-11-20T13:25:53Z</time>
      </trkpt>
      <trkpt lat="45.46429" lon="4.09471">
        <ele>623.55</ele>
        <time>2022-11-20T13:26:09Z</time>
      </trkpt>
      <trkpt lat="45.46407" lon="4.09475">
        <ele>620.67</ele>
        <time>2022-11-20T13:26:25Z</time>
      </trkpt>
      <trkpt lat="45.46387" lon="4.09472">
        <ele>618.26</ele>
        <time>2022-11-20T13:26:44Z</time>
      </trkpt>
      <trkpt lat="45.46374" lon="4.09475">
        <ele>617.78</ele>
        <time>2022-11-20T13:26:56Z</time>
      </trkpt>
      <trkpt lat="45.46373" lon="4.09476">
        <ele>617.3</ele>
        <time>2022-11-20T13:26:57Z</time>
      </trkpt>
      <trkpt lat="45.46371" lon="4.09477">
        <ele>617.3</ele>
        <time>2022-11-20T13:26:58Z</time>
      </trkpt>
      <trkpt lat="45.46369" lon="4.09478">
        <ele>617.3</ele>
        <time>2022-11-20T13:26:59Z</time>
      </trkpt>
      <trkpt lat="45.46367" lon="4.09479">
        <ele>616.82</ele>
        <time>2022-11-20T13:27:00Z</time>
      </trkpt>
      <trkpt lat="45.46364" lon="4.0948">
        <ele>616.82</ele>
        <time>2022-11-20T13:27:01Z</time>
      </trkpt>
      <trkpt lat="45.46362" lon="4.09481">
        <ele>616.34</ele>
        <time>2022-11-20T13:27:02Z</time>
      </trkpt>
      <trkpt lat="45.4636" lon="4.09482">
        <ele>616.34</ele>
        <time>2022-11-20T13:27:03Z</time>
      </trkpt>
      <trkpt lat="45.46332" lon="4.09487">
        <ele>612.02</ele>
        <time>2022-11-20T13:27:21Z</time>
      </trkpt>
      <trkpt lat="45.46325" lon="4.09487">
        <ele>608.17</ele>
        <time>2022-11-20T13:27:38Z</time>
      </trkpt>
      <trkpt lat="45.46305" lon="4.09476">
        <ele>605.77</ele>
        <time>2022-11-20T13:27:56Z</time>
      </trkpt>
      <trkpt lat="45.46282" lon="4.09471">
        <ele>603.36</ele>
        <time>2022-11-20T13:28:12Z</time>
      </trkpt>
      <trkpt lat="45.46264" lon="4.09468">
        <ele>600</ele>
        <time>2022-11-20T13:28:26Z</time>
      </trkpt>
      <trkpt lat="45.46246" lon="4.09457">
        <ele>600</ele>
        <time>2022-11-20T13:28:45Z</time>
      </trkpt>
      <trkpt lat="45.46228" lon="4.09447">
        <ele>600.48</ele>
        <time>2022-11-20T13:29:01Z</time>
      </trkpt>
      <trkpt lat="45.46216" lon="4.09444">
        <ele>609.13</ele>
        <time>2022-11-20T13:29:18Z</time>
      </trkpt>
      <trkpt lat="45.46201" lon="4.09447">
        <ele>621.15</ele>
        <time>2022-11-20T13:29:39Z</time>
      </trkpt>
      <trkpt lat="45.46189" lon="4.09452">
        <ele>628.36</ele>
        <time>2022-11-20T13:29:52Z</time>
      </trkpt>
      <trkpt lat="45.46174" lon="4.09455">
        <ele>624.99</ele>
        <time>2022-11-20T13:30:04Z</time>
      </trkpt>
      <trkpt lat="45.46193" lon="4.09475">
        <ele>622.59</ele>
        <time>2022-11-20T13:30:18Z</time>
      </trkpt>
      <trkpt lat="45.4621" lon="4.09503">
        <ele>625.47</ele>
        <time>2022-11-20T13:30:36Z</time>
      </trkpt>
      <trkpt lat="45.46215" lon="4.09518">
        <ele>627.4</ele>
        <time>2022-11-20T13:30:44Z</time>
      </trkpt>
      <trkpt lat="45.46223" lon="4.09543">
        <ele>634.13</ele>
        <time>2022-11-20T13:30:59Z</time>
      </trkpt>
      <trkpt lat="45.4623" lon="4.09561">
        <ele>642.78</ele>
        <time>2022-11-20T13:31:13Z</time>
      </trkpt>
      <trkpt lat="45.46236" lon="4.09594">
        <ele>649.99</ele>
        <time>2022-11-20T13:31:30Z</time>
      </trkpt>
      <trkpt lat="45.46252" lon="4.09629">
        <ele>634.13</ele>
        <time>2022-11-20T13:31:46Z</time>
      </trkpt>
      <trkpt lat="45.46257" lon="4.09634">
        <ele>632.68</ele>
        <time>2022-11-20T13:31:51Z</time>
      </trkpt>
      <trkpt lat="45.46274" lon="4.09651">
        <ele>634.13</ele>
        <time>2022-11-20T13:32:07Z</time>
      </trkpt>
      <trkpt lat="45.46288" lon="4.09679">
        <ele>636.53</ele>
        <time>2022-11-20T13:32:25Z</time>
      </trkpt>
      <trkpt lat="45.4631" lon="4.09701">
        <ele>635.57</ele>
        <time>2022-11-20T13:32:42Z</time>
      </trkpt>
      <trkpt lat="45.46336" lon="4.09709">
        <ele>631.24</ele>
        <time>2022-11-20T13:33:03Z</time>
      </trkpt>
      <trkpt lat="45.46353" lon="4.09732">
        <ele>630.76</ele>
        <time>2022-11-20T13:33:20Z</time>
      </trkpt>
      <trkpt lat="45.4636" lon="4.09759">
        <ele>635.57</ele>
        <time>2022-11-20T13:33:33Z</time>
      </trkpt>
      <trkpt lat="45.46361" lon="4.09789">
        <ele>638.45</ele>
        <time>2022-11-20T13:33:49Z</time>
      </trkpt>
      <trkpt lat="45.46353" lon="4.09819">
        <ele>641.82</ele>
        <time>2022-11-20T13:34:08Z</time>
      </trkpt>
      <trkpt lat="45.46345" lon="4.09855">
        <ele>645.18</ele>
        <time>2022-11-20T13:34:26Z</time>
      </trkpt>
      <trkpt lat="45.46346" lon="4.09888">
        <ele>648.55</ele>
        <time>2022-11-20T13:34:44Z</time>
      </trkpt>
      <trkpt lat="45.46341" lon="4.09928">
        <ele>645.66</ele>
        <time>2022-11-20T13:35:02Z</time>
      </trkpt>
      <trkpt lat="45.46332" lon="4.09961">
        <ele>646.14</ele>
        <time>2022-11-20T13:35:17Z</time>
      </trkpt>
      <trkpt lat="45.46321" lon="4.09996">
        <ele>643.74</ele>
        <time>2022-11-20T13:35:35Z</time>
      </trkpt>
      <trkpt lat="45.4631" lon="4.1003">
        <ele>644.22</ele>
        <time>2022-11-20T13:35:52Z</time>
      </trkpt>
      <trkpt lat="45.46299" lon="4.10063">
        <ele>642.78</ele>
        <time>2022-11-20T13:36:10Z</time>
      </trkpt>
      <trkpt lat="45.46289" lon="4.10096">
        <ele>641.82</ele>
        <time>2022-11-20T13:36:28Z</time>
      </trkpt>
      <trkpt lat="45.46272" lon="4.10123">
        <ele>640.86</ele>
        <time>2022-11-20T13:36:44Z</time>
      </trkpt>
      <trkpt lat="45.46255" lon="4.10138">
        <ele>640.38</ele>
        <time>2022-11-20T13:37:01Z</time>
      </trkpt>
      <trkpt lat="45.46238" lon="4.10159">
        <ele>641.82</ele>
        <time>2022-11-20T13:37:17Z</time>
      </trkpt>
      <trkpt lat="45.46222" lon="4.10176">
        <ele>642.78</ele>
        <time>2022-11-20T13:37:33Z</time>
      </trkpt>
      <trkpt lat="45.46207" lon="4.10197">
        <ele>645.66</ele>
        <time>2022-11-20T13:37:53Z</time>
      </trkpt>
      <trkpt lat="45.46183" lon="4.10208">
        <ele>643.74</ele>
        <time>2022-11-20T13:38:12Z</time>
      </trkpt>
      <trkpt lat="45.46158" lon="4.10206">
        <ele>641.82</ele>
        <time>2022-11-20T13:38:24Z</time>
      </trkpt>
      <trkpt lat="45.46156" lon="4.10204">
        <ele>642.3</ele>
        <time>2022-11-20T13:38:25Z</time>
      </trkpt>
      <trkpt lat="45.46155" lon="4.10203">
        <ele>642.3</ele>
        <time>2022-11-20T13:38:26Z</time>
      </trkpt>
      <trkpt lat="45.46146" lon="4.10198">
        <ele>646.62</ele>
        <time>2022-11-20T13:38:40Z</time>
      </trkpt>
      <trkpt lat="45.46141" lon="4.10205">
        <ele>658.16</ele>
        <time>2022-11-20T13:38:59Z</time>
      </trkpt>
      <trkpt lat="45.4614" lon="4.10208">
        <ele>660.08</ele>
        <time>2022-11-20T13:39:01Z</time>
      </trkpt>
      <trkpt lat="45.46134" lon="4.10227">
        <ele>666.81</ele>
        <time>2022-11-20T13:39:10Z</time>
      </trkpt>
      <trkpt lat="45.46115" lon="4.10253">
        <ele>667.29</ele>
        <time>2022-11-20T13:39:24Z</time>
      </trkpt>
      <trkpt lat="45.4611" lon="4.10262">
        <ele>666.81</ele>
        <time>2022-11-20T13:39:29Z</time>
      </trkpt>
      <trkpt lat="45.46092" lon="4.10289">
        <ele>666.33</ele>
        <time>2022-11-20T13:39:46Z</time>
      </trkpt>
      <trkpt lat="45.46075" lon="4.10308">
        <ele>665.85</ele>
        <time>2022-11-20T13:40:02Z</time>
      </trkpt>
      <trkpt lat="45.46057" lon="4.1032">
        <ele>665.37</ele>
        <time>2022-11-20T13:40:13Z</time>
      </trkpt>
      <trkpt lat="45.46025" lon="4.10329">
        <ele>659.12</ele>
        <time>2022-11-20T13:40:27Z</time>
      </trkpt>
      <trkpt lat="45.45988" lon="4.10341">
        <ele>650.95</ele>
        <time>2022-11-20T13:40:45Z</time>
      </trkpt>
      <trkpt lat="45.45964" lon="4.10357">
        <ele>654.31</ele>
        <time>2022-11-20T13:41:05Z</time>
      </trkpt>
      <trkpt lat="45.4595" lon="4.10366">
        <ele>655.76</ele>
        <time>2022-11-20T13:41:16Z</time>
      </trkpt>
      <trkpt lat="45.45928" lon="4.10387">
        <ele>658.16</ele>
        <time>2022-11-20T13:41:33Z</time>
      </trkpt>
      <trkpt lat="45.45908" lon="4.10403">
        <ele>664.41</ele>
        <time>2022-11-20T13:41:52Z</time>
      </trkpt>
      <trkpt lat="45.45877" lon="4.10401">
        <ele>662.01</ele>
        <time>2022-11-20T13:42:10Z</time>
      </trkpt>
      <trkpt lat="45.45849" lon="4.10391">
        <ele>655.76</ele>
        <time>2022-11-20T13:42:24Z</time>
      </trkpt>
      <trkpt lat="45.4584" lon="4.10393">
        <ele>655.28</ele>
        <time>2022-11-20T13:42:30Z</time>
      </trkpt>
      <trkpt lat="45.45815" lon="4.10418">
        <ele>653.35</ele>
        <time>2022-11-20T13:42:50Z</time>
      </trkpt>
      <trkpt lat="45.4581" lon="4.10448">
        <ele>656.72</ele>
        <time>2022-11-20T13:43:06Z</time>
      </trkpt>
      <trkpt lat="45.45803" lon="4.1049">
        <ele>655.76</ele>
        <time>2022-11-20T13:43:25Z</time>
      </trkpt>
      <trkpt lat="45.45789" lon="4.1052">
        <ele>655.28</ele>
        <time>2022-11-20T13:43:42Z</time>
      </trkpt>
      <trkpt lat="45.45783" lon="4.10536">
        <ele>650.95</ele>
        <time>2022-11-20T13:43:59Z</time>
      </trkpt>
      <trkpt lat="45.45787" lon="4.10572">
        <ele>649.99</ele>
        <time>2022-11-20T13:44:18Z</time>
      </trkpt>
      <trkpt lat="45.45798" lon="4.10607">
        <ele>646.62</ele>
        <time>2022-11-20T13:44:37Z</time>
      </trkpt>
      <trkpt lat="45.45801" lon="4.10642">
        <ele>646.14</ele>
        <time>2022-11-20T13:44:54Z</time>
      </trkpt>
      <trkpt lat="45.45794" lon="4.10668">
        <ele>646.62</ele>
        <time>2022-11-20T13:45:09Z</time>
      </trkpt>
      <trkpt lat="45.45782" lon="4.10676">
        <ele>647.59</ele>
        <time>2022-11-20T13:45:26Z</time>
      </trkpt>
      <trkpt lat="45.45768" lon="4.10669">
        <ele>651.43</ele>
        <time>2022-11-20T13:45:46Z</time>
      </trkpt>
      <trkpt lat="45.45732" lon="4.1067">
        <ele>649.51</ele>
        <time>2022-11-20T13:46:03Z</time>
      </trkpt>
      <trkpt lat="45.45725" lon="4.10669">
        <ele>649.51</ele>
        <time>2022-11-20T13:46:08Z</time>
      </trkpt>
      <trkpt lat="45.45699" lon="4.10666">
        <ele>645.66</ele>
        <time>2022-11-20T13:46:25Z</time>
      </trkpt>
      <trkpt lat="45.45682" lon="4.10669">
        <ele>644.22</ele>
        <time>2022-11-20T13:46:37Z</time>
      </trkpt>
      <trkpt lat="45.45655" lon="4.10679">
        <ele>642.3</ele>
        <time>2022-11-20T13:46:58Z</time>
      </trkpt>
      <trkpt lat="45.45637" lon="4.10693">
        <ele>641.34</ele>
        <time>2022-11-20T13:47:14Z</time>
      </trkpt>
      <trkpt lat="45.45635" lon="4.10736">
        <ele>637.49</ele>
        <time>2022-11-20T13:47:37Z</time>
      </trkpt>
      <trkpt lat="45.45639" lon="4.10773">
        <ele>638.45</ele>
        <time>2022-11-20T13:47:56Z</time>
      </trkpt>
      <trkpt lat="45.45637" lon="4.10804">
        <ele>637.49</ele>
        <time>2022-11-20T13:48:14Z</time>
      </trkpt>
      <trkpt lat="45.45628" lon="4.10836">
        <ele>634.61</ele>
        <time>2022-11-20T13:48:33Z</time>
      </trkpt>
      <trkpt lat="45.45617" lon="4.10865">
        <ele>633.17</ele>
        <time>2022-11-20T13:48:49Z</time>
      </trkpt>
      <trkpt lat="45.45604" lon="4.10897">
        <ele>626.92</ele>
        <time>2022-11-20T13:49:04Z</time>
      </trkpt>
      <trkpt lat="45.45589" lon="4.10933">
        <ele>620.67</ele>
        <time>2022-11-20T13:49:24Z</time>
      </trkpt>
      <trkpt lat="45.45573" lon="4.10965">
        <ele>619.23</ele>
        <time>2022-11-20T13:49:42Z</time>
      </trkpt>
      <trkpt lat="45.45551" lon="4.10994">
        <ele>616.82</ele>
        <time>2022-11-20T13:50:01Z</time>
      </trkpt>
      <trkpt lat="45.4553" lon="4.11018">
        <ele>614.9</ele>
        <time>2022-11-20T13:50:18Z</time>
      </trkpt>
      <trkpt lat="45.45521" lon="4.11043">
        <ele>613.94</ele>
        <time>2022-11-20T13:50:35Z</time>
      </trkpt>
      <trkpt lat="45.45513" lon="4.11069">
        <ele>614.42</ele>
        <time>2022-11-20T13:50:51Z</time>
      </trkpt>
      <trkpt lat="45.45502" lon="4.11099">
        <ele>615.38</ele>
        <time>2022-11-20T13:51:06Z</time>
      </trkpt>
      <trkpt lat="45.45492" lon="4.1112">
        <ele>618.26</ele>
        <time>2022-11-20T13:51:20Z</time>
      </trkpt>
      <trkpt lat="45.45488" lon="4.11128">
        <ele>621.15</ele>
        <time>2022-11-20T13:51:42Z</time>
      </trkpt>
      <trkpt lat="45.45489" lon="4.11134">
        <ele>620.67</ele>
        <time>2022-11-20T13:52:17Z</time>
      </trkpt>
      <trkpt lat="45.45493" lon="4.11155">
        <ele>618.75</ele>
        <time>2022-11-20T13:52:35Z</time>
      </trkpt>
      <trkpt lat="45.45493" lon="4.11184">
        <ele>621.63</ele>
        <time>2022-11-20T13:52:52Z</time>
      </trkpt>
      <trkpt lat="45.45492" lon="4.1119">
        <ele>622.11</ele>
        <time>2022-11-20T13:52:55Z</time>
      </trkpt>
      <trkpt lat="45.45476" lon="4.11225">
        <ele>621.63</ele>
        <time>2022-11-20T13:53:14Z</time>
      </trkpt>
      <trkpt lat="45.45454" lon="4.1125">
        <ele>623.07</ele>
        <time>2022-11-20T13:53:36Z</time>
      </trkpt>
      <trkpt lat="45.45436" lon="4.1125">
        <ele>624.03</ele>
        <time>2022-11-20T13:53:51Z</time>
      </trkpt>
      <trkpt lat="45.45405" lon="4.1125">
        <ele>626.44</ele>
        <time>2022-11-20T13:54:09Z</time>
      </trkpt>
      <trkpt lat="45.45384" lon="4.11251">
        <ele>629.8</ele>
        <time>2022-11-20T13:54:25Z</time>
      </trkpt>
      <trkpt lat="45.45362" lon="4.11259">
        <ele>633.17</ele>
        <time>2022-11-20T13:54:46Z</time>
      </trkpt>
      <trkpt lat="45.45343" lon="4.1126">
        <ele>637.49</ele>
        <time>2022-11-20T13:55:05Z</time>
      </trkpt>
      <trkpt lat="45.45327" lon="4.11276">
        <ele>640.86</ele>
        <time>2022-11-20T13:55:20Z</time>
      </trkpt>
      <trkpt lat="45.45315" lon="4.1131">
        <ele>641.34</ele>
        <time>2022-11-20T13:55:33Z</time>
      </trkpt>
      <trkpt lat="45.4531" lon="4.11338">
        <ele>643.26</ele>
        <time>2022-11-20T13:55:48Z</time>
      </trkpt>
      <trkpt lat="45.45309" lon="4.1134">
        <ele>643.26</ele>
        <time>2022-11-20T13:55:49Z</time>
      </trkpt>
      <trkpt lat="45.45309" lon="4.11342">
        <ele>643.74</ele>
        <time>2022-11-20T13:55:50Z</time>
      </trkpt>
      <trkpt lat="45.453" lon="4.11361">
        <ele>645.18</ele>
        <time>2022-11-20T13:56:02Z</time>
      </trkpt>
      <trkpt lat="45.45284" lon="4.11362">
        <ele>647.1</ele>
        <time>2022-11-20T13:56:15Z</time>
      </trkpt>
      <trkpt lat="45.45282" lon="4.11363">
        <ele>647.59</ele>
        <time>2022-11-20T13:56:16Z</time>
      </trkpt>
      <trkpt lat="45.45267" lon="4.11364">
        <ele>649.99</ele>
        <time>2022-11-20T13:56:27Z</time>
      </trkpt>
      <trkpt lat="45.45247" lon="4.11377">
        <ele>654.8</ele>
        <time>2022-11-20T13:56:41Z</time>
      </trkpt>
      <trkpt lat="45.45229" lon="4.11371">
        <ele>658.64</ele>
        <time>2022-11-20T13:56:58Z</time>
      </trkpt>
      <trkpt lat="45.45214" lon="4.11365">
        <ele>659.6</ele>
        <time>2022-11-20T13:57:14Z</time>
      </trkpt>
      <trkpt lat="45.45213" lon="4.11365">
        <ele>659.6</ele>
        <time>2022-11-20T13:57:15Z</time>
      </trkpt>
      <trkpt lat="45.45211" lon="4.11366">
        <ele>659.6</ele>
        <time>2022-11-20T13:57:16Z</time>
      </trkpt>
      <trkpt lat="45.4521" lon="4.11365">
        <ele>660.08</ele>
        <time>2022-11-20T13:57:17Z</time>
      </trkpt>
      <trkpt lat="45.45209" lon="4.11365">
        <ele>660.08</ele>
        <time>2022-11-20T13:57:18Z</time>
      </trkpt>
      <trkpt lat="45.45184" lon="4.11362">
        <ele>661.04</ele>
        <time>2022-11-20T13:57:31Z</time>
      </trkpt>
      <trkpt lat="45.45159" lon="4.11358">
        <ele>662.49</ele>
        <time>2022-11-20T13:57:46Z</time>
      </trkpt>
      <trkpt lat="45.45137" lon="4.11357">
        <ele>664.41</ele>
        <time>2022-11-20T13:58:03Z</time>
      </trkpt>
      <trkpt lat="45.45112" lon="4.1136">
        <ele>665.85</ele>
        <time>2022-11-20T13:58:18Z</time>
      </trkpt>
      <trkpt lat="45.45088" lon="4.11362">
        <ele>664.89</ele>
        <time>2022-11-20T13:58:36Z</time>
      </trkpt>
      <trkpt lat="45.45061" lon="4.11354">
        <ele>662.97</ele>
        <time>2022-11-20T13:58:54Z</time>
      </trkpt>
      <trkpt lat="45.45039" lon="4.11347">
        <ele>661.52</ele>
        <time>2022-11-20T13:59:10Z</time>
      </trkpt>
      <trkpt lat="45.45007" lon="4.11336">
        <ele>659.12</ele>
        <time>2022-11-20T13:59:30Z</time>
      </trkpt>
      <trkpt lat="45.44986" lon="4.11341">
        <ele>657.2</ele>
        <time>2022-11-20T13:59:44Z</time>
      </trkpt>
      <trkpt lat="45.44978" lon="4.11371">
        <ele>656.24</ele>
        <time>2022-11-20T13:59:58Z</time>
      </trkpt>
      <trkpt lat="45.44968" lon="4.11415">
        <ele>655.76</ele>
        <time>2022-11-20T14:00:17Z</time>
      </trkpt>
      <trkpt lat="45.44962" lon="4.11444">
        <ele>656.24</ele>
        <time>2022-11-20T14:00:33Z</time>
      </trkpt>
      <trkpt lat="45.44954" lon="4.11482">
        <ele>655.28</ele>
        <time>2022-11-20T14:00:50Z</time>
      </trkpt>
      <trkpt lat="45.44946" lon="4.11517">
        <ele>654.31</ele>
        <time>2022-11-20T14:01:07Z</time>
      </trkpt>
      <trkpt lat="45.44938" lon="4.11555">
        <ele>653.35</ele>
        <time>2022-11-20T14:01:25Z</time>
      </trkpt>
      <trkpt lat="45.44932" lon="4.11593">
        <ele>652.87</ele>
        <time>2022-11-20T14:01:43Z</time>
      </trkpt>
      <trkpt lat="45.44927" lon="4.1163">
        <ele>653.35</ele>
        <time>2022-11-20T14:02:01Z</time>
      </trkpt>
      <trkpt lat="45.4492" lon="4.1166">
        <ele>652.87</ele>
        <time>2022-11-20T14:02:16Z</time>
      </trkpt>
      <trkpt lat="45.44907" lon="4.11694">
        <ele>652.87</ele>
        <time>2022-11-20T14:02:36Z</time>
      </trkpt>
      <trkpt lat="45.44896" lon="4.11717">
        <ele>651.91</ele>
        <time>2022-11-20T14:02:51Z</time>
      </trkpt>
      <trkpt lat="45.44885" lon="4.1172">
        <ele>650.47</ele>
        <time>2022-11-20T14:02:59Z</time>
      </trkpt>
      <trkpt lat="45.44884" lon="4.11721">
        <ele>650.47</ele>
        <time>2022-11-20T14:03:00Z</time>
      </trkpt>
      <trkpt lat="45.44882" lon="4.11729">
        <ele>649.99</ele>
        <time>2022-11-20T14:03:05Z</time>
      </trkpt>
      <trkpt lat="45.44874" lon="4.11765">
        <ele>649.51</ele>
        <time>2022-11-20T14:03:21Z</time>
      </trkpt>
      <trkpt lat="45.44879" lon="4.11798">
        <ele>649.99</ele>
        <time>2022-11-20T14:03:38Z</time>
      </trkpt>
      <trkpt lat="45.4489" lon="4.1184">
        <ele>649.03</ele>
        <time>2022-11-20T14:03:58Z</time>
      </trkpt>
      <trkpt lat="45.44898" lon="4.11875">
        <ele>649.99</ele>
        <time>2022-11-20T14:04:17Z</time>
      </trkpt>
      <trkpt lat="45.44906" lon="4.11911">
        <ele>650.95</ele>
        <time>2022-11-20T14:04:36Z</time>
      </trkpt>
      <trkpt lat="45.44911" lon="4.11944">
        <ele>651.43</ele>
        <time>2022-11-20T14:04:53Z</time>
      </trkpt>
      <trkpt lat="45.4492" lon="4.11975">
        <ele>652.39</ele>
        <time>2022-11-20T14:05:14Z</time>
      </trkpt>
      <trkpt lat="45.44938" lon="4.12004">
        <ele>651.91</ele>
        <time>2022-11-20T14:05:30Z</time>
      </trkpt>
      <trkpt lat="45.44949" lon="4.12022">
        <ele>653.35</ele>
        <time>2022-11-20T14:05:44Z</time>
      </trkpt>
      <trkpt lat="45.44964" lon="4.12053">
        <ele>655.76</ele>
        <time>2022-11-20T14:06:04Z</time>
      </trkpt>
      <trkpt lat="45.44986" lon="4.12079">
        <ele>657.2</ele>
        <time>2022-11-20T14:06:25Z</time>
      </trkpt>
      <trkpt lat="45.44994" lon="4.1211">
        <ele>654.31</ele>
        <time>2022-11-20T14:06:42Z</time>
      </trkpt>
      <trkpt lat="45.44994" lon="4.12154">
        <ele>650.95</ele>
        <time>2022-11-20T14:07:00Z</time>
      </trkpt>
      <trkpt lat="45.44994" lon="4.12187">
        <ele>647.59</ele>
        <time>2022-11-20T14:07:18Z</time>
      </trkpt>
      <trkpt lat="45.44994" lon="4.1222">
        <ele>646.14</ele>
        <time>2022-11-20T14:07:34Z</time>
      </trkpt>
      <trkpt lat="45.44998" lon="4.12256">
        <ele>646.62</ele>
        <time>2022-11-20T14:07:54Z</time>
      </trkpt>
      <trkpt lat="45.45" lon="4.12271">
        <ele>646.62</ele>
        <time>2022-11-20T14:08:03Z</time>
      </trkpt>
      <trkpt lat="45.45001" lon="4.12273">
        <ele>646.62</ele>
        <time>2022-11-20T14:08:04Z</time>
      </trkpt>
      <trkpt lat="45.45002" lon="4.12274">
        <ele>646.62</ele>
        <time>2022-11-20T14:08:05Z</time>
      </trkpt>
      <trkpt lat="45.4501" lon="4.12311">
        <ele>644.7</ele>
        <time>2022-11-20T14:08:25Z</time>
      </trkpt>
      <trkpt lat="45.45018" lon="4.1234">
        <ele>644.22</ele>
        <time>2022-11-20T14:08:38Z</time>
      </trkpt>
      <trkpt lat="45.45026" lon="4.1237">
        <ele>643.74</ele>
        <time>2022-11-20T14:08:56Z</time>
      </trkpt>
      <trkpt lat="45.45038" lon="4.12407">
        <ele>639.41</ele>
        <time>2022-11-20T14:09:16Z</time>
      </trkpt>
      <trkpt lat="45.45048" lon="4.12437">
        <ele>639.41</ele>
        <time>2022-11-20T14:09:31Z</time>
      </trkpt>
      <trkpt lat="45.45058" lon="4.12476">
        <ele>637.97</ele>
        <time>2022-11-20T14:09:52Z</time>
      </trkpt>
      <trkpt lat="45.45068" lon="4.12514">
        <ele>636.53</ele>
        <time>2022-11-20T14:10:12Z</time>
      </trkpt>
      <trkpt lat="45.45075" lon="4.12558">
        <ele>633.65</ele>
        <time>2022-11-20T14:10:35Z</time>
      </trkpt>
      <trkpt lat="45.45081" lon="4.12591">
        <ele>629.32</ele>
        <time>2022-11-20T14:10:54Z</time>
      </trkpt>
      <trkpt lat="45.45086" lon="4.12625">
        <ele>625.96</ele>
        <time>2022-11-20T14:11:13Z</time>
      </trkpt>
      <trkpt lat="45.45093" lon="4.12664">
        <ele>623.55</ele>
        <time>2022-11-20T14:11:33Z</time>
      </trkpt>
      <trkpt lat="45.45098" lon="4.12697">
        <ele>622.59</ele>
        <time>2022-11-20T14:11:52Z</time>
      </trkpt>
      <trkpt lat="45.45106" lon="4.12732">
        <ele>620.67</ele>
        <time>2022-11-20T14:12:13Z</time>
      </trkpt>
      <trkpt lat="45.45117" lon="4.1277">
        <ele>617.3</ele>
        <time>2022-11-20T14:12:34Z</time>
      </trkpt>
      <trkpt lat="45.45127" lon="4.12806">
        <ele>615.86</ele>
        <time>2022-11-20T14:12:55Z</time>
      </trkpt>
      <trkpt lat="45.45135" lon="4.12844">
        <ele>612.98</ele>
        <time>2022-11-20T14:13:14Z</time>
      </trkpt>
      <trkpt lat="45.45153" lon="4.12876">
        <ele>609.13</ele>
        <time>2022-11-20T14:13:35Z</time>
      </trkpt>
      <trkpt lat="45.4518" lon="4.12904">
        <ele>607.21</ele>
        <time>2022-11-20T14:13:55Z</time>
      </trkpt>
      <trkpt lat="45.45203" lon="4.1295">
        <ele>605.77</ele>
        <time>2022-11-20T14:14:12Z</time>
      </trkpt>
      <trkpt lat="45.45227" lon="4.12983">
        <ele>603.36</ele>
        <time>2022-11-20T14:14:29Z</time>
      </trkpt>
      <trkpt lat="45.45249" lon="4.12997">
        <ele>604.33</ele>
        <time>2022-11-20T14:14:47Z</time>
      </trkpt>
      <trkpt lat="45.45268" lon="4.13013">
        <ele>605.77</ele>
        <time>2022-11-20T14:15:04Z</time>
      </trkpt>
      <trkpt lat="45.45289" lon="4.13039">
        <ele>607.69</ele>
        <time>2022-11-20T14:15:19Z</time>
      </trkpt>
      <trkpt lat="45.45303" lon="4.13066">
        <ele>609.61</ele>
        <time>2022-11-20T14:15:37Z</time>
      </trkpt>
      <trkpt lat="45.45321" lon="4.13092">
        <ele>612.98</ele>
        <time>2022-11-20T14:15:56Z</time>
      </trkpt>
      <trkpt lat="45.45335" lon="4.13124">
        <ele>615.38</ele>
        <time>2022-11-20T14:16:16Z</time>
      </trkpt>
      <trkpt lat="45.45359" lon="4.1315">
        <ele>613.94</ele>
        <time>2022-11-20T14:16:37Z</time>
      </trkpt>
      <trkpt lat="45.45379" lon="4.1318">
        <ele>616.34</ele>
        <time>2022-11-20T14:16:55Z</time>
      </trkpt>
      <trkpt lat="45.45395" lon="4.13208">
        <ele>616.82</ele>
        <time>2022-11-20T14:17:13Z</time>
      </trkpt>
      <trkpt lat="45.45408" lon="4.13231">
        <ele>616.34</ele>
        <time>2022-11-20T14:17:30Z</time>
      </trkpt>
      <trkpt lat="45.45427" lon="4.13265">
        <ele>614.42</ele>
        <time>2022-11-20T14:17:51Z</time>
      </trkpt>
      <trkpt lat="45.45444" lon="4.13295">
        <ele>614.9</ele>
        <time>2022-11-20T14:18:12Z</time>
      </trkpt>
      <trkpt lat="45.45448" lon="4.13298">
        <ele>615.86</ele>
        <time>2022-11-20T14:18:16Z</time>
      </trkpt>
      <trkpt lat="45.45464" lon="4.13311">
        <ele>615.38</ele>
        <time>2022-11-20T14:18:31Z</time>
      </trkpt>
      <trkpt lat="45.45478" lon="4.1335">
        <ele>616.34</ele>
        <time>2022-11-20T14:18:51Z</time>
      </trkpt>
      <trkpt lat="45.45493" lon="4.13387">
        <ele>614.9</ele>
        <time>2022-11-20T14:19:12Z</time>
      </trkpt>
      <trkpt lat="45.45502" lon="4.13419">
        <ele>616.82</ele>
        <time>2022-11-20T14:19:32Z</time>
      </trkpt>
      <trkpt lat="45.45512" lon="4.13438">
        <ele>625.96</ele>
        <time>2022-11-20T14:19:51Z</time>
      </trkpt>
      <trkpt lat="45.45524" lon="4.13464">
        <ele>635.57</ele>
        <time>2022-11-20T14:20:10Z</time>
      </trkpt>
      <trkpt lat="45.4554" lon="4.13492">
        <ele>645.18</ele>
        <time>2022-11-20T14:20:28Z</time>
      </trkpt>
      <trkpt lat="45.4558" lon="4.13506">
        <ele>638.93</ele>
        <time>2022-11-20T14:20:45Z</time>
      </trkpt>
      <trkpt lat="45.45614" lon="4.13519">
        <ele>628.36</ele>
        <time>2022-11-20T14:21:03Z</time>
      </trkpt>
      <trkpt lat="45.45645" lon="4.13547">
        <ele>616.82</ele>
        <time>2022-11-20T14:21:18Z</time>
      </trkpt>
      <trkpt lat="45.45668" lon="4.13563">
        <ele>617.78</ele>
        <time>2022-11-20T14:21:36Z</time>
      </trkpt>
      <trkpt lat="45.45689" lon="4.13584">
        <ele>621.15</ele>
        <time>2022-11-20T14:21:58Z</time>
      </trkpt>
      <trkpt lat="45.45687" lon="4.13597">
        <ele>619.71</ele>
        <time>2022-11-20T14:22:03Z</time>
      </trkpt>
      <trkpt lat="45.45686" lon="4.13599">
        <ele>619.71</ele>
        <time>2022-11-20T14:22:04Z</time>
      </trkpt>
      <trkpt lat="45.45686" lon="4.13601">
        <ele>618.75</ele>
        <time>2022-11-20T14:22:05Z</time>
      </trkpt>
      <trkpt lat="45.45686" lon="4.13604">
        <ele>617.78</ele>
        <time>2022-11-20T14:22:06Z</time>
      </trkpt>
      <trkpt lat="45.45686" lon="4.13606">
        <ele>617.3</ele>
        <time>2022-11-20T14:22:07Z</time>
      </trkpt>
      <trkpt lat="45.45687" lon="4.13609">
        <ele>615.86</ele>
        <time>2022-11-20T14:22:08Z</time>
      </trkpt>
      <trkpt lat="45.45704" lon="4.1364">
        <ele>600.48</ele>
        <time>2022-11-20T14:22:25Z</time>
      </trkpt>
      <trkpt lat="45.4572" lon="4.13665">
        <ele>596.64</ele>
        <time>2022-11-20T14:22:44Z</time>
      </trkpt>
      <trkpt lat="45.45738" lon="4.1369">
        <ele>594.71</ele>
        <time>2022-11-20T14:23:02Z</time>
      </trkpt>
      <trkpt lat="45.45748" lon="4.13719">
        <ele>587.5</ele>
        <time>2022-11-20T14:23:24Z</time>
      </trkpt>
      <trkpt lat="45.45757" lon="4.13751">
        <ele>583.66</ele>
        <time>2022-11-20T14:23:36Z</time>
      </trkpt>
      <trkpt lat="45.45763" lon="4.13777">
        <ele>583.18</ele>
        <time>2022-11-20T14:23:50Z</time>
      </trkpt>
      <trkpt lat="45.45772" lon="4.13813">
        <ele>583.66</ele>
        <time>2022-11-20T14:24:08Z</time>
      </trkpt>
      <trkpt lat="45.45781" lon="4.13854">
        <ele>581.25</ele>
        <time>2022-11-20T14:24:27Z</time>
      </trkpt>
      <trkpt lat="45.45783" lon="4.13859">
        <ele>581.25</ele>
        <time>2022-11-20T14:24:30Z</time>
      </trkpt>
      <trkpt lat="45.45783" lon="4.13862">
        <ele>581.25</ele>
        <time>2022-11-20T14:24:31Z</time>
      </trkpt>
      <trkpt lat="45.45783" lon="4.13865">
        <ele>581.25</ele>
        <time>2022-11-20T14:24:32Z</time>
      </trkpt>
      <trkpt lat="45.45784" lon="4.13869">
        <ele>581.25</ele>
        <time>2022-11-20T14:24:33Z</time>
      </trkpt>
      <trkpt lat="45.45784" lon="4.13872">
        <ele>581.25</ele>
        <time>2022-11-20T14:24:34Z</time>
      </trkpt>
      <trkpt lat="45.45785" lon="4.13875">
        <ele>581.73</ele>
        <time>2022-11-20T14:24:35Z</time>
      </trkpt>
      <trkpt lat="45.4579" lon="4.13902">
        <ele>582.7</ele>
        <time>2022-11-20T14:24:49Z</time>
      </trkpt>
      <trkpt lat="45.45793" lon="4.13923">
        <ele>583.66</ele>
        <time>2022-11-20T14:24:58Z</time>
      </trkpt>
      <trkpt lat="45.45792" lon="4.13925">
        <ele>583.66</ele>
        <time>2022-11-20T14:24:59Z</time>
      </trkpt>
      <trkpt lat="45.45792" lon="4.13928">
        <ele>584.14</ele>
        <time>2022-11-20T14:25:00Z</time>
      </trkpt>
      <trkpt lat="45.45792" lon="4.1393">
        <ele>584.14</ele>
        <time>2022-11-20T14:25:01Z</time>
      </trkpt>
      <trkpt lat="45.45792" lon="4.13933">
        <ele>584.14</ele>
        <time>2022-11-20T14:25:02Z</time>
      </trkpt>
      <trkpt lat="45.45792" lon="4.1397">
        <ele>587.5</ele>
        <time>2022-11-20T14:25:19Z</time>
      </trkpt>
      <trkpt lat="45.45787" lon="4.14">
        <ele>590.87</ele>
        <time>2022-11-20T14:25:32Z</time>
      </trkpt>
      <trkpt lat="45.4579" lon="4.14018">
        <ele>588.95</ele>
        <time>2022-11-20T14:25:46Z</time>
      </trkpt>
      <trkpt lat="45.458" lon="4.14048">
        <ele>589.43</ele>
        <time>2022-11-20T14:26:00Z</time>
      </trkpt>
      <trkpt lat="45.45809" lon="4.14086">
        <ele>591.35</ele>
        <time>2022-11-20T14:26:21Z</time>
      </trkpt>
      <trkpt lat="45.4582" lon="4.14112">
        <ele>590.87</ele>
        <time>2022-11-20T14:26:42Z</time>
      </trkpt>
      <trkpt lat="45.45822" lon="4.14134">
        <ele>588.95</ele>
        <time>2022-11-20T14:27:05Z</time>
      </trkpt>
      <trkpt lat="45.45825" lon="4.14184">
        <ele>585.58</ele>
        <time>2022-11-20T14:27:20Z</time>
      </trkpt>
      <trkpt lat="45.45821" lon="4.14241">
        <ele>585.58</ele>
        <time>2022-11-20T14:27:36Z</time>
      </trkpt>
      <trkpt lat="45.4581" lon="4.14303">
        <ele>581.25</ele>
        <time>2022-11-20T14:27:51Z</time>
      </trkpt>
      <trkpt lat="45.45805" lon="4.14339">
        <ele>580.77</ele>
        <time>2022-11-20T14:28:05Z</time>
      </trkpt>
      <trkpt lat="45.45801" lon="4.14381">
        <ele>581.73</ele>
        <time>2022-11-20T14:28:28Z</time>
      </trkpt>
      <trkpt lat="45.45795" lon="4.14412">
        <ele>584.14</ele>
        <time>2022-11-20T14:28:42Z</time>
      </trkpt>
      <trkpt lat="45.45792" lon="4.14441">
        <ele>587.5</ele>
        <time>2022-11-20T14:29:01Z</time>
      </trkpt>
      <trkpt lat="45.45783" lon="4.14462">
        <ele>591.83</ele>
        <time>2022-11-20T14:29:15Z</time>
      </trkpt>
      <trkpt lat="45.45777" lon="4.14487">
        <ele>594.71</ele>
        <time>2022-11-20T14:29:31Z</time>
      </trkpt>
      <trkpt lat="45.45778" lon="4.14488">
        <ele>595.19</ele>
        <time>2022-11-20T14:29:32Z</time>
      </trkpt>
      <trkpt lat="45.45788" lon="4.14499">
        <ele>599.52</ele>
        <time>2022-11-20T14:29:46Z</time>
      </trkpt>
      <trkpt lat="45.45802" lon="4.14517">
        <ele>600</ele>
        <time>2022-11-20T14:30:01Z</time>
      </trkpt>
      <trkpt lat="45.45812" lon="4.14507">
        <ele>602.88</ele>
        <time>2022-11-20T14:30:15Z</time>
      </trkpt>
      <trkpt lat="45.45812" lon="4.14509">
        <ele>602.88</ele>
        <time>2022-11-20T14:30:16Z</time>
      </trkpt>
      <trkpt lat="45.45805" lon="4.14538">
        <ele>603.85</ele>
        <time>2022-11-20T14:30:31Z</time>
      </trkpt>
      <trkpt lat="45.45794" lon="4.14565">
        <ele>604.81</ele>
        <time>2022-11-20T14:30:48Z</time>
      </trkpt>
      <trkpt lat="45.4578" lon="4.14592">
        <ele>605.29</ele>
        <time>2022-11-20T14:31:03Z</time>
      </trkpt>
      <trkpt lat="45.45766" lon="4.14623">
        <ele>606.25</ele>
        <time>2022-11-20T14:31:20Z</time>
      </trkpt>
      <trkpt lat="45.45748" lon="4.14661">
        <ele>608.65</ele>
        <time>2022-11-20T14:31:36Z</time>
      </trkpt>
      <trkpt lat="45.45733" lon="4.1469">
        <ele>607.21</ele>
        <time>2022-11-20T14:31:54Z</time>
      </trkpt>
      <trkpt lat="45.45724" lon="4.14725">
        <ele>602.88</ele>
        <time>2022-11-20T14:32:12Z</time>
      </trkpt>
      <trkpt lat="45.45717" lon="4.14758">
        <ele>600</ele>
        <time>2022-11-20T14:32:29Z</time>
      </trkpt>
      <trkpt lat="45.45714" lon="4.14791">
        <ele>599.04</ele>
        <time>2022-11-20T14:32:46Z</time>
      </trkpt>
      <trkpt lat="45.45709" lon="4.14825">
        <ele>602.4</ele>
        <time>2022-11-20T14:33:06Z</time>
      </trkpt>
      <trkpt lat="45.45704" lon="4.14854">
        <ele>602.88</ele>
        <time>2022-11-20T14:33:21Z</time>
      </trkpt>
      <trkpt lat="45.45711" lon="4.14867">
        <ele>603.36</ele>
        <time>2022-11-20T14:33:26Z</time>
      </trkpt>
      <trkpt lat="45.45718" lon="4.14912">
        <ele>602.88</ele>
        <time>2022-11-20T14:33:49Z</time>
      </trkpt>
      <trkpt lat="45.45725" lon="4.14945">
        <ele>604.81</ele>
        <time>2022-11-20T14:34:08Z</time>
      </trkpt>
      <trkpt lat="45.45737" lon="4.14982">
        <ele>602.88</ele>
        <time>2022-11-20T14:34:26Z</time>
      </trkpt>
      <trkpt lat="45.45749" lon="4.15011">
        <ele>605.29</ele>
        <time>2022-11-20T14:34:46Z</time>
      </trkpt>
      <trkpt lat="45.45766" lon="4.15048">
        <ele>600.48</ele>
        <time>2022-11-20T14:35:04Z</time>
      </trkpt>
      <trkpt lat="45.45783" lon="4.15077">
        <ele>600</ele>
        <time>2022-11-20T14:35:22Z</time>
      </trkpt>
      <trkpt lat="45.45803" lon="4.15101">
        <ele>600.48</ele>
        <time>2022-11-20T14:35:40Z</time>
      </trkpt>
      <trkpt lat="45.45828" lon="4.15124">
        <ele>599.52</ele>
        <time>2022-11-20T14:35:59Z</time>
      </trkpt>
      <trkpt lat="45.45851" lon="4.15142">
        <ele>599.04</ele>
        <time>2022-11-20T14:36:17Z</time>
      </trkpt>
      <trkpt lat="45.45875" lon="4.15153">
        <ele>600</ele>
        <time>2022-11-20T14:36:35Z</time>
      </trkpt>
      <trkpt lat="45.45899" lon="4.15163">
        <ele>600</ele>
        <time>2022-11-20T14:36:52Z</time>
      </trkpt>
      <trkpt lat="45.45924" lon="4.15175">
        <ele>600</ele>
        <time>2022-11-20T14:37:10Z</time>
      </trkpt>
      <trkpt lat="45.45949" lon="4.15189">
        <ele>600.48</ele>
        <time>2022-11-20T14:37:27Z</time>
      </trkpt>
      <trkpt lat="45.45971" lon="4.15202">
        <ele>601.92</ele>
        <time>2022-11-20T14:37:44Z</time>
      </trkpt>
      <trkpt lat="45.45995" lon="4.15216">
        <ele>600.48</ele>
        <time>2022-11-20T14:38:02Z</time>
      </trkpt>
      <trkpt lat="45.46007" lon="4.15219">
        <ele>599.52</ele>
        <time>2022-11-20T14:38:20Z</time>
      </trkpt>
      <trkpt lat="45.46011" lon="4.15223">
        <ele>598.56</ele>
        <time>2022-11-20T14:38:46Z</time>
      </trkpt>
      <trkpt lat="45.4601" lon="4.15242">
        <ele>596.64</ele>
        <time>2022-11-20T14:39:03Z</time>
      </trkpt>
      <trkpt lat="45.4601" lon="4.15242">
        <ele>595.67</ele>
        <time>2022-11-20T14:39:23Z</time>
      </trkpt>
      <trkpt lat="45.46009" lon="4.15241">
        <ele>595.67</ele>
        <time>2022-11-20T14:39:40Z</time>
      </trkpt>
      <trkpt lat="45.46012" lon="4.15239">
        <ele>597.12</ele>
        <time>2022-11-20T14:39:54Z</time>
      </trkpt>
      <trkpt lat="45.46013" lon="4.1524">
        <ele>598.56</ele>
        <time>2022-11-20T14:40:11Z</time>
      </trkpt>
      <trkpt lat="45.46013" lon="4.15239">
        <ele>600.96</ele>
        <time>2022-11-20T14:40:33Z</time>
      </trkpt>
      <trkpt lat="45.46011" lon="4.15243">
        <ele>600.96</ele>
        <time>2022-11-20T14:40:44Z</time>
      </trkpt>
      <trkpt lat="45.46011" lon="4.15242">
        <ele>598.08</ele>
        <time>2022-11-20T14:41:03Z</time>
      </trkpt>
      <trkpt lat="45.46012" lon="4.15242">
        <ele>598.56</ele>
        <time>2022-11-20T14:41:19Z</time>
      </trkpt>
      <trkpt lat="45.46013" lon="4.1524">
        <ele>599.52</ele>
        <time>2022-11-20T14:41:40Z</time>
      </trkpt>
      <trkpt lat="45.4601" lon="4.15244">
        <ele>598.56</ele>
        <time>2022-11-20T14:41:54Z</time>
      </trkpt>
      <trkpt lat="45.46012" lon="4.15241">
        <ele>597.12</ele>
        <time>2022-11-20T14:42:12Z</time>
      </trkpt>
      <trkpt lat="45.46013" lon="4.1524">
        <ele>597.12</ele>
        <time>2022-11-20T14:42:29Z</time>
      </trkpt>
      <trkpt lat="45.46012" lon="4.15242">
        <ele>597.6</ele>
        <time>2022-11-20T14:42:48Z</time>
      </trkpt>
      <trkpt lat="45.46012" lon="4.1524">
        <ele>599.04</ele>
        <time>2022-11-20T14:43:04Z</time>
      </trkpt>
      <trkpt lat="45.46012" lon="4.1524">
        <ele>600</ele>
        <time>2022-11-20T14:43:19Z</time>
      </trkpt>
      <trkpt lat="45.46012" lon="4.15239">
        <ele>600.48</ele>
        <time>2022-11-20T14:43:38Z</time>
      </trkpt>
      <trkpt lat="45.46011" lon="4.1524">
        <ele>600.96</ele>
        <time>2022-11-20T14:43:59Z</time>
      </trkpt>
      <trkpt lat="45.46008" lon="4.15243">
        <ele>600.48</ele>
        <time>2022-11-20T14:44:11Z</time>
      </trkpt>
      <trkpt lat="45.46008" lon="4.15244">
        <ele>599.04</ele>
        <time>2022-11-20T14:44:25Z</time>
      </trkpt>
      <trkpt lat="45.46012" lon="4.1524">
        <ele>600</ele>
        <time>2022-11-20T14:44:40Z</time>
      </trkpt>
      <trkpt lat="45.46011" lon="4.15242">
        <ele>600.48</ele>
        <time>2022-11-20T14:44:53Z</time>
      </trkpt>
      <trkpt lat="45.46012" lon="4.1524">
        <ele>600</ele>
        <time>2022-11-20T14:45:10Z</time>
      </trkpt>
      <trkpt lat="45.46014" lon="4.15238">
        <ele>601.92</ele>
        <time>2022-11-20T14:45:29Z</time>
      </trkpt>
      <trkpt lat="45.46013" lon="4.15236">
        <ele>601.44</ele>
        <time>2022-11-20T14:45:53Z</time>
      </trkpt>
      <trkpt lat="45.46013" lon="4.15237">
        <ele>601.44</ele>
        <time>2022-11-20T14:46:07Z</time>
      </trkpt>
      <trkpt lat="45.46011" lon="4.15243">
        <ele>600</ele>
        <time>2022-11-20T14:46:21Z</time>
      </trkpt>
      <trkpt lat="45.46012" lon="4.15241">
        <ele>600</ele>
        <time>2022-11-20T14:46:36Z</time>
      </trkpt>
      <trkpt lat="45.4601" lon="4.1524">
        <ele>598.08</ele>
        <time>2022-11-20T14:46:55Z</time>
      </trkpt>
      <trkpt lat="45.46007" lon="4.15238">
        <ele>597.12</ele>
        <time>2022-11-20T14:47:21Z</time>
      </trkpt>
      <trkpt lat="45.46009" lon="4.15243">
        <ele>597.12</ele>
        <time>2022-11-20T14:47:44Z</time>
      </trkpt>
      <trkpt lat="45.46012" lon="4.1524">
        <ele>598.56</ele>
        <time>2022-11-20T14:47:58Z</time>
      </trkpt>
      <trkpt lat="45.46011" lon="4.15241">
        <ele>599.52</ele>
        <time>2022-11-20T14:48:12Z</time>
      </trkpt>
      <trkpt lat="45.46006" lon="4.15243">
        <ele>599.52</ele>
        <time>2022-11-20T14:48:26Z</time>
      </trkpt>
      <trkpt lat="45.46007" lon="4.15244">
        <ele>599.04</ele>
        <time>2022-11-20T14:48:41Z</time>
      </trkpt>
      <trkpt lat="45.46006" lon="4.15243">
        <ele>599.52</ele>
        <time>2022-11-20T14:49:01Z</time>
      </trkpt>
      <trkpt lat="45.4601" lon="4.15241">
        <ele>598.56</ele>
        <time>2022-11-20T14:49:14Z</time>
      </trkpt>
      <trkpt lat="45.46009" lon="4.15242">
        <ele>599.04</ele>
        <time>2022-11-20T14:49:28Z</time>
      </trkpt>
      <trkpt lat="45.46007" lon="4.15241">
        <ele>600</ele>
        <time>2022-11-20T14:49:43Z</time>
      </trkpt>
      <trkpt lat="45.46008" lon="4.15243">
        <ele>598.56</ele>
        <time>2022-11-20T14:50:06Z</time>
      </trkpt>
      <trkpt lat="45.46008" lon="4.15244">
        <ele>597.12</ele>
        <time>2022-11-20T14:50:29Z</time>
      </trkpt>
      <trkpt lat="45.46007" lon="4.15243">
        <ele>597.6</ele>
        <time>2022-11-20T14:50:51Z</time>
      </trkpt>
      <trkpt lat="45.46006" lon="4.15242">
        <ele>599.04</ele>
        <time>2022-11-20T14:51:07Z</time>
      </trkpt>
      <trkpt lat="45.46005" lon="4.15242">
        <ele>597.12</ele>
        <time>2022-11-20T14:51:24Z</time>
      </trkpt>
      <trkpt lat="45.46004" lon="4.15242">
        <ele>596.64</ele>
        <time>2022-11-20T14:51:44Z</time>
      </trkpt>
      <trkpt lat="45.46009" lon="4.15241">
        <ele>598.08</ele>
        <time>2022-11-20T14:51:58Z</time>
      </trkpt>
      <trkpt lat="45.46012" lon="4.15238">
        <ele>599.04</ele>
        <time>2022-11-20T14:52:12Z</time>
      </trkpt>
      <trkpt lat="45.46009" lon="4.15237">
        <ele>598.56</ele>
        <time>2022-11-20T14:52:37Z</time>
      </trkpt>
      <trkpt lat="45.4601" lon="4.15235">
        <ele>599.04</ele>
        <time>2022-11-20T14:53:05Z</time>
      </trkpt>
      <trkpt lat="45.46011" lon="4.15234">
        <ele>597.6</ele>
        <time>2022-11-20T14:53:28Z</time>
      </trkpt>
      <trkpt lat="45.46012" lon="4.1524">
        <ele>599.04</ele>
        <time>2022-11-20T14:53:43Z</time>
      </trkpt>
      <trkpt lat="45.46009" lon="4.15251">
        <ele>600.48</ele>
        <time>2022-11-20T14:54:12Z</time>
      </trkpt>
      <trkpt lat="45.46008" lon="4.15243">
        <ele>600</ele>
        <time>2022-11-20T14:54:46Z</time>
      </trkpt>
      <trkpt lat="45.46009" lon="4.15242">
        <ele>599.04</ele>
        <time>2022-11-20T14:55:08Z</time>
      </trkpt>
      <trkpt lat="45.46006" lon="4.15241">
        <ele>596.15</ele>
        <time>2022-11-20T14:55:39Z</time>
      </trkpt>
      <trkpt lat="45.46009" lon="4.15242">
        <ele>599.04</ele>
        <time>2022-11-20T14:56:12Z</time>
      </trkpt>
      <trkpt lat="45.46009" lon="4.15241">
        <ele>598.56</ele>
        <time>2022-11-20T14:56:40Z</time>
      </trkpt>
      <trkpt lat="45.46011" lon="4.15235">
        <ele>599.04</ele>
        <time>2022-11-20T14:56:58Z</time>
      </trkpt>
      <trkpt lat="45.46007" lon="4.15231">
        <ele>598.56</ele>
        <time>2022-11-20T14:57:12Z</time>
      </trkpt>
      <trkpt lat="45.46009" lon="4.15233">
        <ele>595.19</ele>
        <time>2022-11-20T14:57:39Z</time>
      </trkpt>
      <trkpt lat="45.46006" lon="4.1523">
        <ele>593.75</ele>
        <time>2022-11-20T14:58:04Z</time>
      </trkpt>
      <trkpt lat="45.46006" lon="4.15229">
        <ele>593.27</ele>
        <time>2022-11-20T14:58:05Z</time>
      </trkpt>
      <trkpt lat="45.46007" lon="4.15227">
        <ele>593.75</ele>
        <time>2022-11-20T14:58:06Z</time>
      </trkpt>
      <trkpt lat="45.46007" lon="4.15226">
        <ele>593.75</ele>
        <time>2022-11-20T14:58:07Z</time>
      </trkpt>
      <trkpt lat="45.46006" lon="4.15224">
        <ele>593.75</ele>
        <time>2022-11-20T14:58:08Z</time>
      </trkpt>
      <trkpt lat="45.46005" lon="4.15223">
        <ele>593.75</ele>
        <time>2022-11-20T14:58:09Z</time>
      </trkpt>
      <trkpt lat="45.46004" lon="4.15222">
        <ele>593.75</ele>
        <time>2022-11-20T14:58:10Z</time>
      </trkpt>
      <trkpt lat="45.46002" lon="4.15221">
        <ele>593.75</ele>
        <time>2022-11-20T14:58:11Z</time>
      </trkpt>
      <trkpt lat="45.46" lon="4.1522">
        <ele>593.75</ele>
        <time>2022-11-20T14:58:12Z</time>
      </trkpt>
      <trkpt lat="45.45998" lon="4.1522">
        <ele>593.75</ele>
        <time>2022-11-20T14:58:13Z</time>
      </trkpt>
      <trkpt lat="45.4599" lon="4.15215">
        <ele>592.31</ele>
        <time>2022-11-20T14:58:22Z</time>
      </trkpt>
      <trkpt lat="45.4599" lon="4.15213">
        <ele>592.31</ele>
        <time>2022-11-20T14:58:23Z</time>
      </trkpt>
      <trkpt lat="45.4599" lon="4.1521">
        <ele>592.31</ele>
        <time>2022-11-20T14:58:24Z</time>
      </trkpt>
    </trkseg>
  </trk>
</gpx>